<?xml version="1.0" encoding="UTF-8" standalone="no" ?><gpx xmlns="http://www.topografix.com/GPX/1/1" xmlns:gpxx="http://www.garmin.com/xmlschemas/GpxExtensions/v3" xmlns:gpxtrkx="http://www.garmin.com/xmlschemas/TrackStatsExtension/v1" xmlns:wptx1="http://www.garmin.com/xmlschemas/WaypointExtension/v1" xmlns:gpxtpx="http://www.garmin.com/xmlschemas/TrackPointExtension/v1" creator="GPSMAP 64st" version="1.1" xmlns:xsi="http://www.w3.org/2001/XMLSchema-instance" xsi:schemaLocation="http://www.topografix.com/GPX/1/1 http://www.topografix.com/GPX/1/1/gpx.xsd http://www.garmin.com/xmlschemas/GpxExtensions/v3 http://www8.garmin.com/xmlschemas/GpxExtensionsv3.xsd http://www.garmin.com/xmlschemas/TrackStatsExtension/v1 http://www8.garmin.com/xmlschemas/TrackStatsExtension.xsd http://www.garmin.com/xmlschemas/WaypointExtension/v1 http://www8.garmin.com/xmlschemas/WaypointExtensionv1.xsd http://www.garmin.com/xmlschemas/TrackPointExtension/v1 http://www.garmin.com/xmlschemas/TrackPointExtensionv1.xsd"><metadata><link href="http://www.garmin.com"><text>Garmin International</text></link><time>2026-08-30T23:55:43Z</time></metadata><trk><name>2026-08-31 02:55:41</name><extensions><gpxx:TrackExtension><gpxx:DisplayColor>Magenta</gpxx:DisplayColor></gpxx:TrackExtension><gpxtrkx:TrackStatsExtension><gpxtrkx:Distance>7551.000</gpxtrkx:Distance><gpxtrkx:TotalElapsedTime>12818</gpxtrkx:TotalElapsedTime><gpxtrkx:MovingTime>11026</gpxtrkx:MovingTime><gpxtrkx:StoppedTime>1787</gpxtrkx:StoppedTime><gpxtrkx:MovingSpeed>0.685</gpxtrkx:MovingSpeed><gpxtrkx:MaxSpeed>1.755</gpxtrkx:MaxSpeed><gpxtrkx:MaxElevation>81.683</gpxtrkx:MaxElevation><gpxtrkx:MinElevation>18.771</gpxtrkx:MinElevation><gpxtrkx:Ascent>290.000</gpxtrkx:Ascent><gpxtrkx:Descent>282.898</gpxtrkx:Descent><gpxtrkx:AvgAscentRate>0.041</gpxtrkx:AvgAscentRate><gpxtrkx:MaxAscentRate>1.229</gpxtrkx:MaxAscentRate><gpxtrkx:AvgDescentRate>0.045</gpxtrkx:AvgDescentRate><gpxtrkx:MaxDescentRate>-1.930</gpxtrkx:MaxDescentRate></gpxtrkx:TrackStatsExtension></extensions><trkseg><trkpt lat="59.1871413309" lon="31.2265347596"><ele>40.07</ele><time>2026-08-30T20:22:05Z</time></trkpt><trkpt lat="59.1871456057" lon="31.2265340053"><ele>40.07</ele><time>2026-08-30T20:22:06Z</time></trkpt><trkpt lat="59.1871415824" lon="31.2265283056"><ele>41.53</ele><time>2026-08-30T20:22:10Z</time></trkpt><trkpt lat="59.1871510539" lon="31.2265245337"><ele>44.35</ele><time>2026-08-30T20:22:12Z</time></trkpt><trkpt lat="59.1871884372" lon="31.2264080252"><ele>43.60</ele><time>2026-08-30T20:22:36Z</time></trkpt><trkpt lat="59.1871899460" lon="31.2263348512"><ele>43.80</ele><time>2026-08-30T20:22:56Z</time></trkpt><trkpt lat="59.1872472782" lon="31.2262890022"><ele>43.72</ele><time>2026-08-30T20:23:18Z</time></trkpt><trkpt lat="59.1872050334" lon="31.2263149023"><ele>43.72</ele><time>2026-08-30T20:23:43Z</time></trkpt><trkpt lat="59.1873335280" lon="31.2262472603"><ele>43.79</ele><time>2026-08-30T20:24:10Z</time></trkpt><trkpt lat="59.1873355396" lon="31.2261600047"><ele>43.16</ele><time>2026-08-30T20:24:38Z</time></trkpt><trkpt lat="59.1873471905" lon="31.2261366192"><ele>43.43</ele><time>2026-08-30T20:24:58Z</time></trkpt><trkpt lat="59.1873396467" lon="31.2260818854"><ele>42.95</ele><time>2026-08-30T20:25:14Z</time></trkpt><trkpt lat="59.1873925366" lon="31.2260451727"><ele>42.46</ele><time>2026-08-30T20:25:27Z</time></trkpt><trkpt lat="59.1875337716" lon="31.2259884272"><ele>42.56</ele><time>2026-08-30T20:25:49Z</time></trkpt><trkpt lat="59.1876023356" lon="31.2259920314"><ele>42.88</ele><time>2026-08-30T20:26:06Z</time></trkpt><trkpt lat="59.1876484361" lon="31.2260272354"><ele>43.68</ele><time>2026-08-30T20:26:36Z</time></trkpt><trkpt lat="59.1877599992" lon="31.2259728368"><ele>44.10</ele><time>2026-08-30T20:26:55Z</time></trkpt><trkpt lat="59.1877965443" lon="31.2259295862"><ele>44.12</ele><time>2026-08-30T20:27:00Z</time></trkpt><trkpt lat="59.1878401302" lon="31.2258991599"><ele>44.23</ele><time>2026-08-30T20:27:06Z</time></trkpt><trkpt lat="59.1878633481" lon="31.2258884311"><ele>44.64</ele><time>2026-08-30T20:27:09Z</time></trkpt><trkpt lat="59.1879802756" lon="31.2258576695"><ele>45.71</ele><time>2026-08-30T20:27:27Z</time></trkpt><trkpt lat="59.1880847141" lon="31.2258294225"><ele>46.05</ele><time>2026-08-30T20:27:51Z</time></trkpt><trkpt lat="59.1881546192" lon="31.2258457672"><ele>46.57</ele><time>2026-08-30T20:28:13Z</time></trkpt><trkpt lat="59.1882619075" lon="31.2259087153"><ele>46.65</ele><time>2026-08-30T20:28:31Z</time></trkpt><trkpt lat="59.1882660147" lon="31.2259404827"><ele>47.29</ele><time>2026-08-30T20:28:41Z</time></trkpt><trkpt lat="59.1882230155" lon="31.2260884233"><ele>47.70</ele><time>2026-08-30T20:29:12Z</time></trkpt><trkpt lat="59.1882777493" lon="31.2260685582"><ele>46.86</ele><time>2026-08-30T20:29:35Z</time></trkpt><trkpt lat="59.1883957665" lon="31.2260027602"><ele>43.95</ele><time>2026-08-30T20:29:52Z</time></trkpt><trkpt lat="59.1884083394" lon="31.2259907741"><ele>47.08</ele><time>2026-08-30T20:29:54Z</time></trkpt><trkpt lat="59.1884988640" lon="31.2259522174"><ele>46.76</ele><time>2026-08-30T20:30:12Z</time></trkpt><trkpt lat="59.1885323916" lon="31.2259762734"><ele>46.23</ele><time>2026-08-30T20:30:20Z</time></trkpt><trkpt lat="59.1886198986" lon="31.2260212842"><ele>46.72</ele><time>2026-08-30T20:30:35Z</time></trkpt><trkpt lat="59.1886648256" lon="31.2260213681"><ele>46.11</ele><time>2026-08-30T20:30:42Z</time></trkpt><trkpt lat="59.1888120957" lon="31.2260216195"><ele>46.21</ele><time>2026-08-30T20:31:10Z</time></trkpt><trkpt lat="59.1888561007" lon="31.2261605915"><ele>45.82</ele><time>2026-08-30T20:31:32Z</time></trkpt><trkpt lat="59.1888815816" lon="31.2262045965"><ele>46.19</ele><time>2026-08-30T20:31:39Z</time></trkpt><trkpt lat="59.1889222339" lon="31.2262294069"><ele>45.39</ele><time>2026-08-30T20:31:59Z</time></trkpt><trkpt lat="59.1889265925" lon="31.2262227014"><ele>45.55</ele><time>2026-08-30T20:32:00Z</time></trkpt><trkpt lat="59.1889774706" lon="31.2262677960"><ele>45.09</ele><time>2026-08-30T20:32:08Z</time></trkpt><trkpt lat="59.1890098248" lon="31.2262998987"><ele>44.96</ele><time>2026-08-30T20:32:13Z</time></trkpt><trkpt lat="59.1891302727" lon="31.2264213525"><ele>45.08</ele><time>2026-08-30T20:32:36Z</time></trkpt><trkpt lat="59.1891393252" lon="31.2264288124"><ele>45.04</ele><time>2026-08-30T20:32:38Z</time></trkpt><trkpt lat="59.1891748644" lon="31.2264573108"><ele>43.62</ele><time>2026-08-30T20:32:46Z</time></trkpt><trkpt lat="59.1892453562" lon="31.2265674490"><ele>44.11</ele><time>2026-08-30T20:32:56Z</time></trkpt><trkpt lat="59.1892565880" lon="31.2266065925"><ele>44.34</ele><time>2026-08-30T20:33:02Z</time></trkpt><trkpt lat="59.1893590149" lon="31.2266320735"><ele>44.83</ele><time>2026-08-30T20:33:21Z</time></trkpt><trkpt lat="59.1894599330" lon="31.2266877294"><ele>45.21</ele><time>2026-08-30T20:33:41Z</time></trkpt><trkpt lat="59.1895218752" lon="31.2266947702"><ele>45.23</ele><time>2026-08-30T20:34:01Z</time></trkpt><trkpt lat="59.1896079574" lon="31.2266274635"><ele>45.41</ele><time>2026-08-30T20:34:23Z</time></trkpt><trkpt lat="59.1896631103" lon="31.2264940236"><ele>45.41</ele><time>2026-08-30T20:34:42Z</time></trkpt><trkpt lat="59.1897258908" lon="31.2263827957"><ele>45.70</ele><time>2026-08-30T20:35:02Z</time></trkpt><trkpt lat="59.1897795349" lon="31.2263319176"><ele>46.08</ele><time>2026-08-30T20:35:21Z</time></trkpt><trkpt lat="59.1898299940" lon="31.2262536306"><ele>46.03</ele><time>2026-08-30T20:35:49Z</time></trkpt><trkpt lat="59.1898817103" lon="31.2261821330"><ele>46.16</ele><time>2026-08-30T20:36:11Z</time></trkpt><trkpt lat="59.1899362765" lon="31.2262236234"><ele>46.58</ele><time>2026-08-30T20:36:29Z</time></trkpt><trkpt lat="59.1900197603" lon="31.2262952887"><ele>46.92</ele><time>2026-08-30T20:36:50Z</time></trkpt><trkpt lat="59.1900698002" lon="31.2262959592"><ele>47.15</ele><time>2026-08-30T20:36:58Z</time></trkpt><trkpt lat="59.1900929343" lon="31.2263051793"><ele>42.88</ele><time>2026-08-30T20:37:01Z</time></trkpt><trkpt lat="59.1900995560" lon="31.2263064366"><ele>42.88</ele><time>2026-08-30T20:37:02Z</time></trkpt><trkpt lat="59.1901117098" lon="31.2263064366"><ele>46.76</ele><time>2026-08-30T20:37:07Z</time></trkpt><trkpt lat="59.1901174933" lon="31.2263037544"><ele>47.06</ele><time>2026-08-30T20:37:08Z</time></trkpt><trkpt lat="59.1901296470" lon="31.2263060175"><ele>46.49</ele><time>2026-08-30T20:37:13Z</time></trkpt><trkpt lat="59.1902791802" lon="31.2263068557"><ele>46.18</ele><time>2026-08-30T20:37:36Z</time></trkpt><trkpt lat="59.1903274599" lon="31.2262456678"><ele>41.76</ele><time>2026-08-30T20:37:48Z</time></trkpt><trkpt lat="59.1903323215" lon="31.2262422312"><ele>42.88</ele><time>2026-08-30T20:37:49Z</time></trkpt><trkpt lat="59.1903443076" lon="31.2262207735"><ele>45.33</ele><time>2026-08-30T20:37:52Z</time></trkpt><trkpt lat="59.1904489137" lon="31.2260688934"><ele>45.31</ele><time>2026-08-30T20:38:15Z</time></trkpt><trkpt lat="59.1905242670" lon="31.2259041891"><ele>40.08</ele><time>2026-08-30T20:38:32Z</time></trkpt><trkpt lat="59.1905296315" lon="31.2258969806"><ele>40.82</ele><time>2026-08-30T20:38:33Z</time></trkpt><trkpt lat="59.1905347444" lon="31.2258843239"><ele>44.75</ele><time>2026-08-30T20:38:35Z</time></trkpt><trkpt lat="59.1905380134" lon="31.2258766964"><ele>44.76</ele><time>2026-08-30T20:38:36Z</time></trkpt><trkpt lat="59.1906582098" lon="31.2257750239"><ele>43.77</ele><time>2026-08-30T20:38:56Z</time></trkpt><trkpt lat="59.1906807572" lon="31.2257563323"><ele>40.04</ele><time>2026-08-30T20:38:59Z</time></trkpt><trkpt lat="59.1906816792" lon="31.2257526442"><ele>29.85</ele><time>2026-08-30T20:39:00Z</time></trkpt><trkpt lat="59.1906845290" lon="31.2257476151"><ele>26.29</ele><time>2026-08-30T20:39:02Z</time></trkpt><trkpt lat="59.1906952579" lon="31.2257365510"><ele>29.91</ele><time>2026-08-30T20:39:04Z</time></trkpt><trkpt lat="59.1907100100" lon="31.2257245649"><ele>30.69</ele><time>2026-08-30T20:39:06Z</time></trkpt><trkpt lat="59.1908150353" lon="31.2256223056"><ele>28.95</ele><time>2026-08-30T20:39:24Z</time></trkpt><trkpt lat="59.1908184718" lon="31.2256225571"><ele>28.78</ele><time>2026-08-30T20:39:25Z</time></trkpt><trkpt lat="59.1908957530" lon="31.2256047875"><ele>29.38</ele><time>2026-08-30T20:39:47Z</time></trkpt><trkpt lat="59.1909023747" lon="31.2256108224"><ele>27.99</ele><time>2026-08-30T20:39:49Z</time></trkpt><trkpt lat="59.1909069009" lon="31.2256131694"><ele>31.06</ele><time>2026-08-30T20:39:51Z</time></trkpt><trkpt lat="59.1910212301" lon="31.2256698310"><ele>30.98</ele><time>2026-08-30T20:40:07Z</time></trkpt><trkpt lat="59.1911155265" lon="31.2257725932"><ele>29.98</ele><time>2026-08-30T20:40:27Z</time></trkpt><trkpt lat="59.1912016086" lon="31.2255964056"><ele>31.26</ele><time>2026-08-30T20:40:45Z</time></trkpt><trkpt lat="59.1912826616" lon="31.2253954075"><ele>31.71</ele><time>2026-08-30T20:41:03Z</time></trkpt><trkpt lat="59.1913353838" lon="31.2252871133"><ele>33.90</ele><time>2026-08-30T20:41:19Z</time></trkpt><trkpt lat="59.1913198773" lon="31.2252147775"><ele>34.34</ele><time>2026-08-30T20:41:47Z</time></trkpt><trkpt lat="59.1913285106" lon="31.2252007797"><ele>34.51</ele><time>2026-08-30T20:41:56Z</time></trkpt><trkpt lat="59.1913601942" lon="31.2251723651"><ele>31.65</ele><time>2026-08-30T20:42:12Z</time></trkpt><trkpt lat="59.1913746949" lon="31.2251629774"><ele>31.67</ele><time>2026-08-30T20:42:15Z</time></trkpt><trkpt lat="59.1913892794" lon="31.2251552660"><ele>19.74</ele><time>2026-08-30T20:42:17Z</time></trkpt><trkpt lat="59.1913981643" lon="31.2251510751"><ele>20.08</ele><time>2026-08-30T20:42:18Z</time></trkpt><trkpt lat="59.1914673988" lon="31.2250415236"><ele>20.17</ele><time>2026-08-30T20:42:34Z</time></trkpt><trkpt lat="59.1914876830" lon="31.2250042241"><ele>18.99</ele><time>2026-08-30T20:42:59Z</time></trkpt><trkpt lat="59.1914687399" lon="31.2248991989"><ele>19.18</ele><time>2026-08-30T20:43:17Z</time></trkpt><trkpt lat="59.1914471146" lon="31.2247628253"><ele>19.70</ele><time>2026-08-30T20:43:35Z</time></trkpt><trkpt lat="59.1914456896" lon="31.2247527670"><ele>19.78</ele><time>2026-08-30T20:43:36Z</time></trkpt><trkpt lat="59.1914021038" lon="31.2245768309"><ele>21.08</ele><time>2026-08-30T20:43:59Z</time></trkpt><trkpt lat="59.1913681570" lon="31.2243765034"><ele>21.67</ele><time>2026-08-30T20:44:17Z</time></trkpt><trkpt lat="59.1913566738" lon="31.2241298240"><ele>22.19</ele><time>2026-08-30T20:44:31Z</time></trkpt><trkpt lat="59.1913478728" lon="31.2239177618"><ele>22.84</ele><time>2026-08-30T20:44:47Z</time></trkpt><trkpt lat="59.1913452744" lon="31.2239001598"><ele>23.10</ele><time>2026-08-30T20:44:49Z</time></trkpt><trkpt lat="59.1913409159" lon="31.2237548176"><ele>24.23</ele><time>2026-08-30T20:45:11Z</time></trkpt><trkpt lat="59.1913969070" lon="31.2236847449"><ele>23.45</ele><time>2026-08-30T20:45:28Z</time></trkpt><trkpt lat="59.1913984157" lon="31.2236747704"><ele>20.91</ele><time>2026-08-30T20:45:30Z</time></trkpt><trkpt lat="59.1914073844" lon="31.2236518878"><ele>25.11</ele><time>2026-08-30T20:45:36Z</time></trkpt><trkpt lat="59.1914098151" lon="31.2236456014"><ele>25.08</ele><time>2026-08-30T20:45:37Z</time></trkpt><trkpt lat="59.1914505512" lon="31.2234761193"><ele>25.21</ele><time>2026-08-30T20:45:54Z</time></trkpt><trkpt lat="59.1914627049" lon="31.2233728543"><ele>25.40</ele><time>2026-08-30T20:46:03Z</time></trkpt><trkpt lat="59.1914275009" lon="31.2231692579"><ele>25.79</ele><time>2026-08-30T20:46:18Z</time></trkpt><trkpt lat="59.1914071329" lon="31.2230264302"><ele>26.16</ele><time>2026-08-30T20:46:31Z</time></trkpt><trkpt lat="59.1914096475" lon="31.2229988538"><ele>26.38</ele><time>2026-08-30T20:46:33Z</time></trkpt><trkpt lat="59.1914226394" lon="31.2227701116"><ele>24.47</ele><time>2026-08-30T20:46:46Z</time></trkpt><trkpt lat="59.1914191190" lon="31.2226744741"><ele>20.98</ele><time>2026-08-30T20:46:50Z</time></trkpt><trkpt lat="59.1914185323" lon="31.2226626556"><ele>21.66</ele><time>2026-08-30T20:46:51Z</time></trkpt><trkpt lat="59.1914192028" lon="31.2224862166"><ele>22.07</ele><time>2026-08-30T20:47:03Z</time></trkpt><trkpt lat="59.1914800555" lon="31.2223844603"><ele>21.15</ele><time>2026-08-30T20:47:24Z</time></trkpt><trkpt lat="59.1914202925" lon="31.2224079296"><ele>22.04</ele><time>2026-08-30T20:48:06Z</time></trkpt><trkpt lat="59.1914465278" lon="31.2223075982"><ele>22.25</ele><time>2026-08-30T20:48:18Z</time></trkpt><trkpt lat="59.1913789697" lon="31.2223436404"><ele>19.57</ele><time>2026-08-30T20:48:46Z</time></trkpt><trkpt lat="59.1913791373" lon="31.2223451491"><ele>19.59</ele><time>2026-08-30T20:48:47Z</time></trkpt><trkpt lat="59.1913976613" lon="31.2222913373"><ele>21.33</ele><time>2026-08-30T20:48:51Z</time></trkpt><trkpt lat="59.1914053727" lon="31.2221765891"><ele>21.49</ele><time>2026-08-30T20:49:11Z</time></trkpt><trkpt lat="59.1914696619" lon="31.2220507767"><ele>22.09</ele><time>2026-08-30T20:49:27Z</time></trkpt><trkpt lat="59.1915305145" lon="31.2219545525"><ele>22.45</ele><time>2026-08-30T20:49:41Z</time></trkpt><trkpt lat="59.1915801354" lon="31.2217890099"><ele>23.20</ele><time>2026-08-30T20:50:01Z</time></trkpt><trkpt lat="59.1916543152" lon="31.2216065358"><ele>23.79</ele><time>2026-08-30T20:50:24Z</time></trkpt><trkpt lat="59.1917010024" lon="31.2214269117"><ele>23.55</ele><time>2026-08-30T20:50:38Z</time></trkpt><trkpt lat="59.1916978173" lon="31.2213729322"><ele>22.22</ele><time>2026-08-30T20:50:42Z</time></trkpt><trkpt lat="59.1917143296" lon="31.2213786319"><ele>23.14</ele><time>2026-08-30T20:50:48Z</time></trkpt><trkpt lat="59.1917538084" lon="31.2213974912"><ele>24.78</ele><time>2026-08-30T20:51:10Z</time></trkpt><trkpt lat="59.1917296685" lon="31.2214597687"><ele>24.45</ele><time>2026-08-30T20:51:34Z</time></trkpt><trkpt lat="59.1917657107" lon="31.2215340324"><ele>23.66</ele><time>2026-08-30T20:51:48Z</time></trkpt><trkpt lat="59.1918252222" lon="31.2217383832"><ele>22.85</ele><time>2026-08-30T20:52:08Z</time></trkpt><trkpt lat="59.1918289103" lon="31.2217739224"><ele>22.91</ele><time>2026-08-30T20:52:10Z</time></trkpt><trkpt lat="59.1918927804" lon="31.2221059296"><ele>22.32</ele><time>2026-08-30T20:52:26Z</time></trkpt><trkpt lat="59.1919945367" lon="31.2221553829"><ele>22.50</ele><time>2026-08-30T20:52:40Z</time></trkpt><trkpt lat="59.1921472549" lon="31.2223164830"><ele>22.73</ele><time>2026-08-30T20:53:02Z</time></trkpt><trkpt lat="59.1922658589" lon="31.2223822810"><ele>23.86</ele><time>2026-08-30T20:53:24Z</time></trkpt><trkpt lat="59.1922743246" lon="31.2223952729"><ele>23.90</ele><time>2026-08-30T20:53:26Z</time></trkpt><trkpt lat="59.1924141347" lon="31.2224228494"><ele>24.74</ele><time>2026-08-30T20:53:56Z</time></trkpt><trkpt lat="59.1923786793" lon="31.2224543653"><ele>25.11</ele><time>2026-08-30T20:54:27Z</time></trkpt><trkpt lat="59.1923827026" lon="31.2224514317"><ele>21.09</ele><time>2026-08-30T20:54:30Z</time></trkpt><trkpt lat="59.1923856363" lon="31.2224518508"><ele>21.10</ele><time>2026-08-30T20:54:31Z</time></trkpt><trkpt lat="59.1923689563" lon="31.2224493362"><ele>25.39</ele><time>2026-08-30T20:54:42Z</time></trkpt><trkpt lat="59.1923656873" lon="31.2224542815"><ele>25.27</ele><time>2026-08-30T20:54:43Z</time></trkpt><trkpt lat="59.1923251189" lon="31.2225155532"><ele>24.90</ele><time>2026-08-30T20:55:10Z</time></trkpt><trkpt lat="59.1922855563" lon="31.2225707900"><ele>24.59</ele><time>2026-08-30T20:55:38Z</time></trkpt><trkpt lat="59.1923357639" lon="31.2225846201"><ele>24.94</ele><time>2026-08-30T20:56:10Z</time></trkpt><trkpt lat="59.1923205089" lon="31.2225582171"><ele>24.74</ele><time>2026-08-30T20:56:38Z</time></trkpt><trkpt lat="59.1923276335" lon="31.2226541061"><ele>24.74</ele><time>2026-08-30T20:57:08Z</time></trkpt><trkpt lat="59.1923470795" lon="31.2226046529"><ele>24.67</ele><time>2026-08-30T20:57:39Z</time></trkpt><trkpt lat="59.1923898272" lon="31.2226216681"><ele>24.70</ele><time>2026-08-30T20:58:09Z</time></trkpt><trkpt lat="59.1923852172" lon="31.2224679440"><ele>24.52</ele><time>2026-08-30T20:58:41Z</time></trkpt><trkpt lat="59.1923925094" lon="31.2223915849"><ele>24.76</ele><time>2026-08-30T20:58:54Z</time></trkpt><trkpt lat="59.1924241930" lon="31.2223414611"><ele>24.64</ele><time>2026-08-30T20:59:00Z</time></trkpt><trkpt lat="59.1924024001" lon="31.2222507689"><ele>24.85</ele><time>2026-08-30T20:59:24Z</time></trkpt><trkpt lat="59.1923772544" lon="31.2222553790"><ele>22.77</ele><time>2026-08-30T20:59:31Z</time></trkpt><trkpt lat="59.1923762485" lon="31.2222617492"><ele>22.91</ele><time>2026-08-30T20:59:40Z</time></trkpt><trkpt lat="59.1924082674" lon="31.2222805247"><ele>25.12</ele><time>2026-08-30T20:59:48Z</time></trkpt><trkpt lat="59.1924262047" lon="31.2223237753"><ele>24.68</ele><time>2026-08-30T21:00:10Z</time></trkpt><trkpt lat="59.1924407054" lon="31.2223362643"><ele>25.84</ele><time>2026-08-30T21:00:22Z</time></trkpt><trkpt lat="59.1924531944" lon="31.2223171536"><ele>22.99</ele><time>2026-08-30T21:00:30Z</time></trkpt><trkpt lat="59.1924996302" lon="31.2223320734"><ele>29.59</ele><time>2026-08-30T21:00:37Z</time></trkpt><trkpt lat="59.1925045755" lon="31.2223299779"><ele>29.59</ele><time>2026-08-30T21:00:38Z</time></trkpt><trkpt lat="59.1925536096" lon="31.2222842127"><ele>29.56</ele><time>2026-08-30T21:00:46Z</time></trkpt><trkpt lat="59.1926391888" lon="31.2222179119"><ele>29.34</ele><time>2026-08-30T21:01:02Z</time></trkpt><trkpt lat="59.1927282047" lon="31.2220578175"><ele>30.05</ele><time>2026-08-30T21:01:21Z</time></trkpt><trkpt lat="59.1927981935" lon="31.2219371181"><ele>31.60</ele><time>2026-08-30T21:01:37Z</time></trkpt><trkpt lat="59.1928004567" lon="31.2217605952"><ele>33.26</ele><time>2026-08-30T21:01:55Z</time></trkpt><trkpt lat="59.1928116046" lon="31.2216813862"><ele>39.66</ele><time>2026-08-30T21:02:03Z</time></trkpt><trkpt lat="59.1928113531" lon="31.2216761895"><ele>35.05</ele><time>2026-08-30T21:02:04Z</time></trkpt><trkpt lat="59.1928143706" lon="31.2216697354"><ele>41.42</ele><time>2026-08-30T21:02:05Z</time></trkpt><trkpt lat="59.1928355768" lon="31.2216293346"><ele>45.55</ele><time>2026-08-30T21:02:11Z</time></trkpt><trkpt lat="59.1928489879" lon="31.2213816494"><ele>45.16</ele><time>2026-08-30T21:02:29Z</time></trkpt><trkpt lat="59.1928924061" lon="31.2212022766"><ele>45.79</ele><time>2026-08-30T21:02:51Z</time></trkpt><trkpt lat="59.1929173004" lon="31.2210826669"><ele>45.75</ele><time>2026-08-30T21:03:08Z</time></trkpt><trkpt lat="59.1929058172" lon="31.2209909689"><ele>45.95</ele><time>2026-08-30T21:03:31Z</time></trkpt><trkpt lat="59.1928936634" lon="31.2208486442"><ele>46.28</ele><time>2026-08-30T21:04:02Z</time></trkpt><trkpt lat="59.1928561125" lon="31.2208407652"><ele>46.69</ele><time>2026-08-30T21:04:29Z</time></trkpt><trkpt lat="59.1928498261" lon="31.2209167052"><ele>46.38</ele><time>2026-08-30T21:04:59Z</time></trkpt><trkpt lat="59.1929426137" lon="31.2209623866"><ele>46.24</ele><time>2026-08-30T21:05:18Z</time></trkpt><trkpt lat="59.1929857805" lon="31.2209557649"><ele>46.10</ele><time>2026-08-30T21:05:48Z</time></trkpt><trkpt lat="59.1929226648" lon="31.2209642306"><ele>45.47</ele><time>2026-08-30T21:06:17Z</time></trkpt><trkpt lat="59.1928930767" lon="31.2209812459"><ele>45.46</ele><time>2026-08-30T21:06:45Z</time></trkpt><trkpt lat="59.1929121036" lon="31.2209928967"><ele>45.14</ele><time>2026-08-30T21:07:11Z</time></trkpt><trkpt lat="59.1928459704" lon="31.2210214790"><ele>44.73</ele><time>2026-08-30T21:07:38Z</time></trkpt><trkpt lat="59.1928774863" lon="31.2211547513"><ele>44.17</ele><time>2026-08-30T21:08:07Z</time></trkpt><trkpt lat="59.1928662546" lon="31.2210708484"><ele>43.55</ele><time>2026-08-30T21:08:30Z</time></trkpt><trkpt lat="59.1928578727" lon="31.2211124226"><ele>43.19</ele><time>2026-08-30T21:08:56Z</time></trkpt><trkpt lat="59.1928620636" lon="31.2210340519"><ele>42.65</ele><time>2026-08-30T21:09:24Z</time></trkpt><trkpt lat="59.1928611416" lon="31.2210798170"><ele>42.25</ele><time>2026-08-30T21:09:54Z</time></trkpt><trkpt lat="59.1928451322" lon="31.2211630493"><ele>41.96</ele><time>2026-08-30T21:10:25Z</time></trkpt><trkpt lat="59.1927921586" lon="31.2212739419"><ele>41.71</ele><time>2026-08-30T21:10:56Z</time></trkpt><trkpt lat="59.1927572899" lon="31.2212401628"><ele>41.09</ele><time>2026-08-30T21:11:24Z</time></trkpt><trkpt lat="59.1927643307" lon="31.2212372292"><ele>40.66</ele><time>2026-08-30T21:11:53Z</time></trkpt><trkpt lat="59.1927947570" lon="31.2211982533"><ele>40.02</ele><time>2026-08-30T21:12:22Z</time></trkpt><trkpt lat="59.1927933320" lon="31.2211932242"><ele>39.89</ele><time>2026-08-30T21:12:26Z</time></trkpt><trkpt lat="59.1928105149" lon="31.2210897915"><ele>39.70</ele><time>2026-08-30T21:12:56Z</time></trkpt><trkpt lat="59.1927863751" lon="31.2209719419"><ele>39.41</ele><time>2026-08-30T21:13:29Z</time></trkpt><trkpt lat="59.1928301286" lon="31.2210463732"><ele>38.93</ele><time>2026-08-30T21:13:56Z</time></trkpt><trkpt lat="59.1929601319" lon="31.2210262567"><ele>37.82</ele><time>2026-08-30T21:14:19Z</time></trkpt><trkpt lat="59.1930890456" lon="31.2208920624"><ele>38.59</ele><time>2026-08-30T21:14:40Z</time></trkpt><trkpt lat="59.1931891255" lon="31.2207307108"><ele>39.43</ele><time>2026-08-30T21:14:59Z</time></trkpt><trkpt lat="59.1932873614" lon="31.2205977738"><ele>40.36</ele><time>2026-08-30T21:15:16Z</time></trkpt><trkpt lat="59.1933078133" lon="31.2205393519"><ele>40.83</ele><time>2026-08-30T21:15:22Z</time></trkpt><trkpt lat="59.1934305243" lon="31.2202824466"><ele>42.30</ele><time>2026-08-30T21:15:46Z</time></trkpt><trkpt lat="59.1934865993" lon="31.2202021480"><ele>42.94</ele><time>2026-08-30T21:16:04Z</time></trkpt><trkpt lat="59.1935523134" lon="31.2200072687"><ele>44.34</ele><time>2026-08-30T21:16:21Z</time></trkpt><trkpt lat="59.1936647985" lon="31.2198374514"><ele>46.07</ele><time>2026-08-30T21:16:44Z</time></trkpt><trkpt lat="59.1937470250" lon="31.2197232898"><ele>46.93</ele><time>2026-08-30T21:17:00Z</time></trkpt><trkpt lat="59.1938866675" lon="31.2197379582"><ele>47.39</ele><time>2026-08-30T21:17:18Z</time></trkpt><trkpt lat="59.1938887630" lon="31.2197342701"><ele>47.57</ele><time>2026-08-30T21:17:19Z</time></trkpt><trkpt lat="59.1939885076" lon="31.2194780353"><ele>48.76</ele><time>2026-08-30T21:17:41Z</time></trkpt><trkpt lat="59.1939591710" lon="31.2193602696"><ele>49.95</ele><time>2026-08-30T21:18:03Z</time></trkpt><trkpt lat="59.1939446703" lon="31.2193238921"><ele>51.15</ele><time>2026-08-30T21:18:35Z</time></trkpt><trkpt lat="59.1939355340" lon="31.2192613631"><ele>51.73</ele><time>2026-08-30T21:19:05Z</time></trkpt><trkpt lat="59.1939155851" lon="31.2192861736"><ele>51.98</ele><time>2026-08-30T21:19:14Z</time></trkpt><trkpt lat="59.1938713286" lon="31.2193140853"><ele>52.55</ele><time>2026-08-30T21:19:47Z</time></trkpt><trkpt lat="59.1939338576" lon="31.2192073837"><ele>53.07</ele><time>2026-08-30T21:20:19Z</time></trkpt><trkpt lat="59.1939772759" lon="31.2192150112"><ele>53.37</ele><time>2026-08-30T21:20:50Z</time></trkpt><trkpt lat="59.1940729134" lon="31.2193324417"><ele>53.28</ele><time>2026-08-30T21:21:21Z</time></trkpt><trkpt lat="59.1941014957" lon="31.2193222996"><ele>52.84</ele><time>2026-08-30T21:21:55Z</time></trkpt><trkpt lat="59.1940890066" lon="31.2192925438"><ele>52.76</ele><time>2026-08-30T21:22:26Z</time></trkpt><trkpt lat="59.1940806247" lon="31.2192870118"><ele>52.78</ele><time>2026-08-30T21:22:56Z</time></trkpt><trkpt lat="59.1940552276" lon="31.2192751933"><ele>53.19</ele><time>2026-08-30T21:23:25Z</time></trkpt><trkpt lat="59.1940361168" lon="31.2192534003"><ele>53.10</ele><time>2026-08-30T21:23:44Z</time></trkpt><trkpt lat="59.1940837260" lon="31.2192974892"><ele>46.68</ele><time>2026-08-30T21:23:54Z</time></trkpt><trkpt lat="59.1940898448" lon="31.2193020154"><ele>46.68</ele><time>2026-08-30T21:23:55Z</time></trkpt><trkpt lat="59.1941262223" lon="31.2192675658"><ele>52.51</ele><time>2026-08-30T21:24:00Z</time></trkpt><trkpt lat="59.1941530444" lon="31.2192733493"><ele>50.68</ele><time>2026-08-30T21:24:05Z</time></trkpt><trkpt lat="59.1942660324" lon="31.2193261553"><ele>50.96</ele><time>2026-08-30T21:24:21Z</time></trkpt><trkpt lat="59.1944029089" lon="31.2194295879"><ele>50.34</ele><time>2026-08-30T21:24:42Z</time></trkpt><trkpt lat="59.1945003066" lon="31.2195161730"><ele>49.92</ele><time>2026-08-30T21:24:56Z</time></trkpt><trkpt lat="59.1946150549" lon="31.2196105532"><ele>49.75</ele><time>2026-08-30T21:25:10Z</time></trkpt><trkpt lat="59.1947099380" lon="31.2195826415"><ele>49.84</ele><time>2026-08-30T21:25:28Z</time></trkpt><trkpt lat="59.1948325653" lon="31.2197785266"><ele>50.11</ele><time>2026-08-30T21:25:49Z</time></trkpt><trkpt lat="59.1948474012" lon="31.2200640142"><ele>50.64</ele><time>2026-08-30T21:26:08Z</time></trkpt><trkpt lat="59.1949183960" lon="31.2202334125"><ele>51.32</ele><time>2026-08-30T21:26:23Z</time></trkpt><trkpt lat="59.1950184759" lon="31.2204478215"><ele>51.97</ele><time>2026-08-30T21:26:43Z</time></trkpt><trkpt lat="59.1950219963" lon="31.2204605620"><ele>51.92</ele><time>2026-08-30T21:26:45Z</time></trkpt><trkpt lat="59.1951481439" lon="31.2204841152"><ele>52.88</ele><time>2026-08-30T21:27:03Z</time></trkpt><trkpt lat="59.1952476371" lon="31.2207164615"><ele>53.74</ele><time>2026-08-30T21:27:24Z</time></trkpt><trkpt lat="59.1953494772" lon="31.2209379952"><ele>55.11</ele><time>2026-08-30T21:27:45Z</time></trkpt><trkpt lat="59.1954384930" lon="31.2210784759"><ele>56.39</ele><time>2026-08-30T21:28:03Z</time></trkpt><trkpt lat="59.1955627967" lon="31.2212437671"><ele>57.81</ele><time>2026-08-30T21:28:24Z</time></trkpt><trkpt lat="59.1955983359" lon="31.2212865986"><ele>58.43</ele><time>2026-08-30T21:28:30Z</time></trkpt><trkpt lat="59.1956364736" lon="31.2213271670"><ele>58.62</ele><time>2026-08-30T21:28:38Z</time></trkpt><trkpt lat="59.1957622021" lon="31.2213425897"><ele>59.38</ele><time>2026-08-30T21:28:57Z</time></trkpt><trkpt lat="59.1958052851" lon="31.2213948090"><ele>61.20</ele><time>2026-08-30T21:29:27Z</time></trkpt><trkpt lat="59.1958186124" lon="31.2214272469"><ele>61.94</ele><time>2026-08-30T21:30:08Z</time></trkpt><trkpt lat="59.1958316881" lon="31.2214172725"><ele>62.39</ele><time>2026-08-30T21:30:35Z</time></trkpt><trkpt lat="59.1958681494" lon="31.2214093935"><ele>61.90</ele><time>2026-08-30T21:31:02Z</time></trkpt><trkpt lat="59.1957964003" lon="31.2214088906"><ele>61.79</ele><time>2026-08-30T21:31:30Z</time></trkpt><trkpt lat="59.1958100628" lon="31.2214468606"><ele>61.62</ele><time>2026-08-30T21:31:56Z</time></trkpt><trkpt lat="59.1958676465" lon="31.2214378919"><ele>60.93</ele><time>2026-08-30T21:32:19Z</time></trkpt><trkpt lat="59.1960085463" lon="31.2214196194"><ele>60.28</ele><time>2026-08-30T21:32:41Z</time></trkpt><trkpt lat="59.1961285751" lon="31.2213047035"><ele>60.16</ele><time>2026-08-30T21:32:59Z</time></trkpt><trkpt lat="59.1962087899" lon="31.2211688329"><ele>59.58</ele><time>2026-08-30T21:33:17Z</time></trkpt><trkpt lat="59.1963260528" lon="31.2211044598"><ele>60.04</ele><time>2026-08-30T21:33:33Z</time></trkpt><trkpt lat="59.1964547150" lon="31.2209908012"><ele>59.11</ele><time>2026-08-30T21:33:54Z</time></trkpt><trkpt lat="59.1964609176" lon="31.2209875323"><ele>56.02</ele><time>2026-08-30T21:33:55Z</time></trkpt><trkpt lat="59.1964646894" lon="31.2209850177"><ele>56.02</ele><time>2026-08-30T21:33:56Z</time></trkpt><trkpt lat="59.1964756697" lon="31.2209538370"><ele>60.52</ele><time>2026-08-30T21:34:01Z</time></trkpt><trkpt lat="59.1964839678" lon="31.2209610455"><ele>60.69</ele><time>2026-08-30T21:34:02Z</time></trkpt><trkpt lat="59.1964900028" lon="31.2209620513"><ele>60.57</ele><time>2026-08-30T21:34:04Z</time></trkpt><trkpt lat="59.1965021566" lon="31.2209649011"><ele>60.35</ele><time>2026-08-30T21:34:06Z</time></trkpt><trkpt lat="59.1965666972" lon="31.2209260929"><ele>60.18</ele><time>2026-08-30T21:34:15Z</time></trkpt><trkpt lat="59.1966759134" lon="31.2209041324"><ele>60.05</ele><time>2026-08-30T21:34:30Z</time></trkpt><trkpt lat="59.1967741493" lon="31.2208739575"><ele>60.03</ele><time>2026-08-30T21:34:42Z</time></trkpt><trkpt lat="59.1969228443" lon="31.2207972631"><ele>60.17</ele><time>2026-08-30T21:35:01Z</time></trkpt><trkpt lat="59.1970279533" lon="31.2207326386"><ele>60.62</ele><time>2026-08-30T21:35:16Z</time></trkpt><trkpt lat="59.1970883030" lon="31.2205634918"><ele>60.34</ele><time>2026-08-30T21:35:33Z</time></trkpt><trkpt lat="59.1971302964" lon="31.2202454824"><ele>60.56</ele><time>2026-08-30T21:35:54Z</time></trkpt><trkpt lat="59.1971533466" lon="31.2200264633"><ele>60.64</ele><time>2026-08-30T21:36:08Z</time></trkpt><trkpt lat="59.1971781570" lon="31.2197161652"><ele>60.78</ele><time>2026-08-30T21:36:26Z</time></trkpt><trkpt lat="59.1972415242" lon="31.2193272449"><ele>61.26</ele><time>2026-08-30T21:36:48Z</time></trkpt><trkpt lat="59.1972400155" lon="31.2192206271"><ele>61.52</ele><time>2026-08-30T21:36:56Z</time></trkpt><trkpt lat="59.1972630657" lon="31.2189725228"><ele>61.92</ele><time>2026-08-30T21:37:14Z</time></trkpt><trkpt lat="59.1972670890" lon="31.2189689185"><ele>61.86</ele><time>2026-08-30T21:37:15Z</time></trkpt><trkpt lat="59.1972534265" lon="31.2189094909"><ele>61.69</ele><time>2026-08-30T21:37:21Z</time></trkpt><trkpt lat="59.1972484812" lon="31.2188115902"><ele>62.12</ele><time>2026-08-30T21:37:50Z</time></trkpt><trkpt lat="59.1972918157" lon="31.2187757157"><ele>61.69</ele><time>2026-08-30T21:38:20Z</time></trkpt><trkpt lat="59.1972247604" lon="31.2186503224"><ele>60.95</ele><time>2026-08-30T21:38:51Z</time></trkpt><trkpt lat="59.1972265206" lon="31.2186496519"><ele>58.51</ele><time>2026-08-30T21:38:55Z</time></trkpt><trkpt lat="59.1972771473" lon="31.2187364884"><ele>58.31</ele><time>2026-08-30T21:39:22Z</time></trkpt><trkpt lat="59.1972929891" lon="31.2186366599"><ele>54.36</ele><time>2026-08-30T21:39:40Z</time></trkpt><trkpt lat="59.1972999461" lon="31.2183386832"><ele>53.21</ele><time>2026-08-30T21:39:59Z</time></trkpt><trkpt lat="59.1973325517" lon="31.2181334943"><ele>54.83</ele><time>2026-08-30T21:40:17Z</time></trkpt><trkpt lat="59.1973360721" lon="31.2181199994"><ele>54.63</ele><time>2026-08-30T21:40:18Z</time></trkpt><trkpt lat="59.1973960865" lon="31.2179069314"><ele>53.28</ele><time>2026-08-30T21:40:35Z</time></trkpt><trkpt lat="59.1974331345" lon="31.2177067716"><ele>53.00</ele><time>2026-08-30T21:40:50Z</time></trkpt><trkpt lat="59.1974422708" lon="31.2176749203"><ele>50.59</ele><time>2026-08-30T21:40:53Z</time></trkpt><trkpt lat="59.1974550951" lon="31.2176307477"><ele>53.69</ele><time>2026-08-30T21:40:57Z</time></trkpt><trkpt lat="59.1974607110" lon="31.2176197674"><ele>53.53</ele><time>2026-08-30T21:40:58Z</time></trkpt><trkpt lat="59.1975057218" lon="31.2174314260"><ele>52.39</ele><time>2026-08-30T21:41:15Z</time></trkpt><trkpt lat="59.1975996830" lon="31.2172575854"><ele>52.28</ele><time>2026-08-30T21:41:31Z</time></trkpt><trkpt lat="59.1976466216" lon="31.2171784602"><ele>52.52</ele><time>2026-08-30T21:41:53Z</time></trkpt><trkpt lat="59.1976996791" lon="31.2171549909"><ele>52.57</ele><time>2026-08-30T21:42:23Z</time></trkpt><trkpt lat="59.1977869347" lon="31.2171347905"><ele>52.60</ele><time>2026-08-30T21:42:52Z</time></trkpt><trkpt lat="59.1978425905" lon="31.2171132490"><ele>52.32</ele><time>2026-08-30T21:43:23Z</time></trkpt><trkpt lat="59.1978113260" lon="31.2170839123"><ele>51.74</ele><time>2026-08-30T21:43:53Z</time></trkpt><trkpt lat="59.1977959871" lon="31.2169953994"><ele>51.05</ele><time>2026-08-30T21:44:24Z</time></trkpt><trkpt lat="59.1977679916" lon="31.2169850059"><ele>48.93</ele><time>2026-08-30T21:44:31Z</time></trkpt><trkpt lat="59.1977261659" lon="31.2169291824"><ele>49.70</ele><time>2026-08-30T21:44:38Z</time></trkpt><trkpt lat="59.1976348870" lon="31.2168410048"><ele>48.78</ele><time>2026-08-30T21:44:55Z</time></trkpt><trkpt lat="59.1975959949" lon="31.2167168688"><ele>47.72</ele><time>2026-08-30T21:45:14Z</time></trkpt><trkpt lat="59.1975748725" lon="31.2167263404"><ele>47.56</ele><time>2026-08-30T21:45:31Z</time></trkpt><trkpt lat="59.1975444462" lon="31.2167628016"><ele>47.57</ele><time>2026-08-30T21:45:35Z</time></trkpt><trkpt lat="59.1975368187" lon="31.2168005202"><ele>47.48</ele><time>2026-08-30T21:46:02Z</time></trkpt><trkpt lat="59.1975463741" lon="31.2167501450"><ele>46.41</ele><time>2026-08-30T21:46:28Z</time></trkpt><trkpt lat="59.1975568514" lon="31.2166691758"><ele>46.32</ele><time>2026-08-30T21:46:41Z</time></trkpt><trkpt lat="59.1975196358" lon="31.2165900506"><ele>50.38</ele><time>2026-08-30T21:47:00Z</time></trkpt><trkpt lat="59.1975204740" lon="31.2165864464"><ele>51.82</ele><time>2026-08-30T21:47:02Z</time></trkpt><trkpt lat="59.1975220665" lon="31.2165828422"><ele>49.81</ele><time>2026-08-30T21:47:04Z</time></trkpt><trkpt lat="59.1975457035" lon="31.2165752985"><ele>49.68</ele><time>2026-08-30T21:47:09Z</time></trkpt><trkpt lat="59.1975581087" lon="31.2165187206"><ele>46.56</ele><time>2026-08-30T21:47:29Z</time></trkpt><trkpt lat="59.1975607071" lon="31.2165132724"><ele>45.91</ele><time>2026-08-30T21:47:32Z</time></trkpt><trkpt lat="59.1976133455" lon="31.2165544275"><ele>43.24</ele><time>2026-08-30T21:47:58Z</time></trkpt><trkpt lat="59.1975937318" lon="31.2166172918"><ele>41.51</ele><time>2026-08-30T21:48:27Z</time></trkpt><trkpt lat="59.1975891218" lon="31.2166272663"><ele>39.13</ele><time>2026-08-30T21:48:45Z</time></trkpt><trkpt lat="59.1976101603" lon="31.2165768910"><ele>37.92</ele><time>2026-08-30T21:49:02Z</time></trkpt><trkpt lat="59.1976019461" lon="31.2164889649"><ele>35.22</ele><time>2026-08-30T21:49:29Z</time></trkpt><trkpt lat="59.1976059694" lon="31.2165022083"><ele>34.13</ele><time>2026-08-30T21:49:45Z</time></trkpt><trkpt lat="59.1976411734" lon="31.2164345663"><ele>33.05</ele><time>2026-08-30T21:50:14Z</time></trkpt><trkpt lat="59.1976453643" lon="31.2165436149"><ele>32.35</ele><time>2026-08-30T21:50:44Z</time></trkpt><trkpt lat="59.1976656485" lon="31.2165036332"><ele>32.43</ele><time>2026-08-30T21:51:08Z</time></trkpt><trkpt lat="59.1976197157" lon="31.2164692674"><ele>32.17</ele><time>2026-08-30T21:51:38Z</time></trkpt><trkpt lat="59.1976117529" lon="31.2164167967"><ele>31.47</ele><time>2026-08-30T21:52:04Z</time></trkpt><trkpt lat="59.1976227332" lon="31.2162560318"><ele>30.29</ele><time>2026-08-30T21:52:21Z</time></trkpt><trkpt lat="59.1976839211" lon="31.2160602305"><ele>29.75</ele><time>2026-08-30T21:52:43Z</time></trkpt><trkpt lat="59.1977186222" lon="31.2158810254"><ele>30.62</ele><time>2026-08-30T21:53:00Z</time></trkpt><trkpt lat="59.1977299377" lon="31.2158034928"><ele>28.89</ele><time>2026-08-30T21:53:17Z</time></trkpt><trkpt lat="59.1977272555" lon="31.2157927640"><ele>32.04</ele><time>2026-08-30T21:53:24Z</time></trkpt><trkpt lat="59.1977254115" lon="31.2157925963"><ele>32.00</ele><time>2026-08-30T21:53:25Z</time></trkpt><trkpt lat="59.1976863518" lon="31.2157417182"><ele>32.71</ele><time>2026-08-30T21:53:56Z</time></trkpt><trkpt lat="59.1976855975" lon="31.2157374434"><ele>33.71</ele><time>2026-08-30T21:54:29Z</time></trkpt><trkpt lat="59.1976633854" lon="31.2157323305"><ele>34.75</ele><time>2026-08-30T21:55:05Z</time></trkpt><trkpt lat="59.1976721026" lon="31.2157807779"><ele>35.50</ele><time>2026-08-30T21:55:50Z</time></trkpt><trkpt lat="59.1976485495" lon="31.2157599907"><ele>35.64</ele><time>2026-08-30T21:56:27Z</time></trkpt><trkpt lat="59.1976421792" lon="31.2157382816"><ele>36.25</ele><time>2026-08-30T21:56:55Z</time></trkpt><trkpt lat="59.1976244096" lon="31.2157114595"><ele>32.07</ele><time>2026-08-30T21:57:27Z</time></trkpt><trkpt lat="59.1976223141" lon="31.2157069333"><ele>32.06</ele><time>2026-08-30T21:57:28Z</time></trkpt><trkpt lat="59.1976140998" lon="31.2156770937"><ele>36.63</ele><time>2026-08-30T21:57:42Z</time></trkpt><trkpt lat="59.1976129264" lon="31.2156734895"><ele>35.97</ele><time>2026-08-30T21:57:43Z</time></trkpt><trkpt lat="59.1976688337" lon="31.2156552169"><ele>34.28</ele><time>2026-08-30T21:57:54Z</time></trkpt><trkpt lat="59.1976865195" lon="31.2156546302"><ele>23.12</ele><time>2026-08-30T21:58:00Z</time></trkpt><trkpt lat="59.1976866033" lon="31.2156529538"><ele>28.09</ele><time>2026-08-30T21:58:01Z</time></trkpt><trkpt lat="59.1976876091" lon="31.2156499363"><ele>34.95</ele><time>2026-08-30T21:58:02Z</time></trkpt><trkpt lat="59.1977034509" lon="31.2155048456"><ele>34.58</ele><time>2026-08-30T21:58:23Z</time></trkpt><trkpt lat="59.1977328714" lon="31.2153567374"><ele>34.37</ele><time>2026-08-30T21:58:44Z</time></trkpt><trkpt lat="59.1977347154" lon="31.2151386403"><ele>35.96</ele><time>2026-08-30T21:59:03Z</time></trkpt><trkpt lat="59.1977093183" lon="31.2150156777"><ele>36.17</ele><time>2026-08-30T21:59:15Z</time></trkpt><trkpt lat="59.1976969969" lon="31.2150045298"><ele>36.32</ele><time>2026-08-30T21:59:17Z</time></trkpt><trkpt lat="59.1975887027" lon="31.2148288451"><ele>36.67</ele><time>2026-08-30T21:59:36Z</time></trkpt><trkpt lat="59.1975426860" lon="31.2147691660"><ele>37.39</ele><time>2026-08-30T21:59:43Z</time></trkpt><trkpt lat="59.1975297779" lon="31.2147516478"><ele>34.70</ele><time>2026-08-30T21:59:45Z</time></trkpt><trkpt lat="59.1975124273" lon="31.2147275917"><ele>32.05</ele><time>2026-08-30T21:59:47Z</time></trkpt><trkpt lat="59.1975016147" lon="31.2146959081"><ele>32.06</ele><time>2026-08-30T21:59:50Z</time></trkpt><trkpt lat="59.1974894609" lon="31.2146770488"><ele>35.49</ele><time>2026-08-30T21:59:52Z</time></trkpt><trkpt lat="59.1974847671" lon="31.2146632187"><ele>37.71</ele><time>2026-08-30T21:59:53Z</time></trkpt><trkpt lat="59.1974656563" lon="31.2146577705"><ele>37.59</ele><time>2026-08-30T21:59:55Z</time></trkpt><trkpt lat="59.1973763891" lon="31.2144213170"><ele>37.96</ele><time>2026-08-30T22:00:14Z</time></trkpt><trkpt lat="59.1973495670" lon="31.2142410222"><ele>39.26</ele><time>2026-08-30T22:00:32Z</time></trkpt><trkpt lat="59.1973501537" lon="31.2142310478"><ele>39.06</ele><time>2026-08-30T22:00:33Z</time></trkpt><trkpt lat="59.1973504052" lon="31.2141328119"><ele>38.70</ele><time>2026-08-30T22:00:53Z</time></trkpt><trkpt lat="59.1973349825" lon="31.2141284533"><ele>37.80</ele><time>2026-08-30T22:01:21Z</time></trkpt><trkpt lat="59.1972917318" lon="31.2140935846"><ele>36.57</ele><time>2026-08-30T22:01:53Z</time></trkpt><trkpt lat="59.1971965972" lon="31.2141432893"><ele>34.84</ele><time>2026-08-30T22:02:10Z</time></trkpt><trkpt lat="59.1971525922" lon="31.2141963467"><ele>34.97</ele><time>2026-08-30T22:02:26Z</time></trkpt><trkpt lat="59.1970930807" lon="31.2142224982"><ele>34.22</ele><time>2026-08-30T22:02:38Z</time></trkpt><trkpt lat="59.1969316453" lon="31.2141874619"><ele>35.10</ele><time>2026-08-30T22:03:00Z</time></trkpt><trkpt lat="59.1968045756" lon="31.2142445426"><ele>34.83</ele><time>2026-08-30T22:03:20Z</time></trkpt><trkpt lat="59.1968004685" lon="31.2142492365"><ele>35.13</ele><time>2026-08-30T22:03:21Z</time></trkpt><trkpt lat="59.1967825312" lon="31.2142525055"><ele>35.40</ele><time>2026-08-30T22:03:23Z</time></trkpt><trkpt lat="59.1967804357" lon="31.2142619770"><ele>36.75</ele><time>2026-08-30T22:03:52Z</time></trkpt><trkpt lat="59.1967312340" lon="31.2143354025"><ele>33.50</ele><time>2026-08-30T22:04:07Z</time></trkpt><trkpt lat="59.1967246961" lon="31.2143400125"><ele>33.50</ele><time>2026-08-30T22:04:08Z</time></trkpt><trkpt lat="59.1967011429" lon="31.2143622246"><ele>37.37</ele><time>2026-08-30T22:04:13Z</time></trkpt><trkpt lat="59.1967013106" lon="31.2143795751"><ele>36.48</ele><time>2026-08-30T22:04:14Z</time></trkpt><trkpt lat="59.1966984607" lon="31.2143832631"><ele>37.10</ele><time>2026-08-30T22:04:17Z</time></trkpt><trkpt lat="59.1965974588" lon="31.2144562695"><ele>37.36</ele><time>2026-08-30T22:04:37Z</time></trkpt><trkpt lat="59.1965830419" lon="31.2144892942"><ele>35.62</ele><time>2026-08-30T22:04:41Z</time></trkpt><trkpt lat="59.1965034138" lon="31.2145823333"><ele>36.72</ele><time>2026-08-30T22:05:00Z</time></trkpt><trkpt lat="59.1964619234" lon="31.2147202156"><ele>37.85</ele><time>2026-08-30T22:05:20Z</time></trkpt><trkpt lat="59.1964260489" lon="31.2148073874"><ele>38.41</ele><time>2026-08-30T22:05:35Z</time></trkpt><trkpt lat="59.1963456664" lon="31.2148745265"><ele>37.85</ele><time>2026-08-30T22:05:58Z</time></trkpt><trkpt lat="59.1963009909" lon="31.2149068806"><ele>38.00</ele><time>2026-08-30T22:06:06Z</time></trkpt><trkpt lat="59.1962881666" lon="31.2149116583"><ele>35.20</ele><time>2026-08-30T22:06:08Z</time></trkpt><trkpt lat="59.1962615121" lon="31.2149143405"><ele>39.04</ele><time>2026-08-30T22:06:12Z</time></trkpt><trkpt lat="59.1962503642" lon="31.2149135023"><ele>39.21</ele><time>2026-08-30T22:06:13Z</time></trkpt><trkpt lat="59.1961356159" lon="31.2149619497"><ele>39.20</ele><time>2026-08-30T22:06:33Z</time></trkpt><trkpt lat="59.1960806306" lon="31.2151343655"><ele>40.03</ele><time>2026-08-30T22:06:52Z</time></trkpt><trkpt lat="59.1960449237" lon="31.2151592597"><ele>41.53</ele><time>2026-08-30T22:07:15Z</time></trkpt><trkpt lat="59.1960180178" lon="31.2152295001"><ele>43.02</ele><time>2026-08-30T22:07:41Z</time></trkpt><trkpt lat="59.1959777009" lon="31.2151322700"><ele>41.93</ele><time>2026-08-30T22:08:10Z</time></trkpt><trkpt lat="59.1959797964" lon="31.2150469422"><ele>38.80</ele><time>2026-08-30T22:08:27Z</time></trkpt><trkpt lat="59.1959797125" lon="31.2150418293"><ele>38.82</ele><time>2026-08-30T22:08:28Z</time></trkpt><trkpt lat="59.1959922854" lon="31.2149803899"><ele>40.40</ele><time>2026-08-30T22:08:33Z</time></trkpt><trkpt lat="59.1960512940" lon="31.2148653064"><ele>39.85</ele><time>2026-08-30T22:08:53Z</time></trkpt><trkpt lat="59.1960356198" lon="31.2147258315"><ele>40.20</ele><time>2026-08-30T22:09:21Z</time></trkpt><trkpt lat="59.1960536409" lon="31.2146876939"><ele>34.76</ele><time>2026-08-30T22:09:48Z</time></trkpt><trkpt lat="59.1960554011" lon="31.2146900408"><ele>34.77</ele><time>2026-08-30T22:09:49Z</time></trkpt><trkpt lat="59.1960737575" lon="31.2147363089"><ele>37.21</ele><time>2026-08-30T22:09:59Z</time></trkpt><trkpt lat="59.1960833967" lon="31.2147479597"><ele>39.57</ele><time>2026-08-30T22:10:03Z</time></trkpt><trkpt lat="59.1961145774" lon="31.2149175256"><ele>37.92</ele><time>2026-08-30T22:10:24Z</time></trkpt><trkpt lat="59.1960480250" lon="31.2151134945"><ele>37.72</ele><time>2026-08-30T22:10:43Z</time></trkpt><trkpt lat="59.1960163414" lon="31.2151742633"><ele>38.15</ele><time>2026-08-30T22:10:52Z</time></trkpt><trkpt lat="59.1959476098" lon="31.2153228745"><ele>37.16</ele><time>2026-08-30T22:11:12Z</time></trkpt><trkpt lat="59.1959302593" lon="31.2153690588"><ele>38.25</ele><time>2026-08-30T22:11:17Z</time></trkpt><trkpt lat="59.1958678979" lon="31.2156227790"><ele>38.48</ele><time>2026-08-30T22:11:38Z</time></trkpt><trkpt lat="59.1957645491" lon="31.2157510221"><ele>38.33</ele><time>2026-08-30T22:11:57Z</time></trkpt><trkpt lat="59.1957639623" lon="31.2159329932"><ele>39.74</ele><time>2026-08-30T22:12:14Z</time></trkpt><trkpt lat="59.1958240606" lon="31.2161575444"><ele>39.85</ele><time>2026-08-30T22:12:41Z</time></trkpt><trkpt lat="59.1958453506" lon="31.2164281961"><ele>39.28</ele><time>2026-08-30T22:13:01Z</time></trkpt><trkpt lat="59.1959087178" lon="31.2166679185"><ele>37.03</ele><time>2026-08-30T22:13:18Z</time></trkpt><trkpt lat="59.1959272418" lon="31.2167286035"><ele>33.66</ele><time>2026-08-30T22:13:24Z</time></trkpt><trkpt lat="59.1959377192" lon="31.2167598680"><ele>38.42</ele><time>2026-08-30T22:13:27Z</time></trkpt><trkpt lat="59.1959399823" lon="31.2167694233"><ele>38.55</ele><time>2026-08-30T22:13:28Z</time></trkpt><trkpt lat="59.1960237175" lon="31.2169990875"><ele>37.24</ele><time>2026-08-30T22:13:47Z</time></trkpt><trkpt lat="59.1961087100" lon="31.2171800528"><ele>37.06</ele><time>2026-08-30T22:14:05Z</time></trkpt><trkpt lat="59.1961330175" lon="31.2172548193"><ele>35.55</ele><time>2026-08-30T22:14:13Z</time></trkpt><trkpt lat="59.1961612646" lon="31.2173745967"><ele>36.89</ele><time>2026-08-30T22:14:23Z</time></trkpt><trkpt lat="59.1961744241" lon="31.2175213639"><ele>34.91</ele><time>2026-08-30T22:14:35Z</time></trkpt><trkpt lat="59.1961846501" lon="31.2175732478"><ele>36.88</ele><time>2026-08-30T22:14:40Z</time></trkpt><trkpt lat="59.1961870808" lon="31.2177584879"><ele>36.04</ele><time>2026-08-30T22:14:57Z</time></trkpt><trkpt lat="59.1962087899" lon="31.2180158123"><ele>36.50</ele><time>2026-08-30T22:15:18Z</time></trkpt><trkpt lat="59.1962082870" lon="31.2180297263"><ele>36.37</ele><time>2026-08-30T22:15:19Z</time></trkpt><trkpt lat="59.1962035093" lon="31.2182436325"><ele>36.03</ele><time>2026-08-30T22:15:35Z</time></trkpt><trkpt lat="59.1962035093" lon="31.2182741426"><ele>37.88</ele><time>2026-08-30T22:15:40Z</time></trkpt><trkpt lat="59.1962035932" lon="31.2184721231"><ele>38.12</ele><time>2026-08-30T22:16:00Z</time></trkpt><trkpt lat="59.1962254699" lon="31.2187901326"><ele>37.80</ele><time>2026-08-30T22:16:20Z</time></trkpt><trkpt lat="59.1963030025" lon="31.2188136857"><ele>38.09</ele><time>2026-08-30T22:16:29Z</time></trkpt><trkpt lat="59.1964935232" lon="31.2188293599"><ele>38.13</ele><time>2026-08-30T22:16:46Z</time></trkpt><trkpt lat="59.1967393644" lon="31.2188664917"><ele>38.21</ele><time>2026-08-30T22:17:08Z</time></trkpt><trkpt lat="59.1969725490" lon="31.2188716885"><ele>38.05</ele><time>2026-08-30T22:17:29Z</time></trkpt><trkpt lat="59.1972182225" lon="31.2188462075"><ele>39.29</ele><time>2026-08-30T22:17:50Z</time></trkpt><trkpt lat="59.1973525845" lon="31.2188973371"><ele>38.67</ele><time>2026-08-30T22:18:04Z</time></trkpt><trkpt lat="59.1973557696" lon="31.2188983429"><ele>38.30</ele><time>2026-08-30T22:18:05Z</time></trkpt><trkpt lat="59.1975105833" lon="31.2188931461"><ele>39.73</ele><time>2026-08-30T22:18:22Z</time></trkpt><trkpt lat="59.1977736913" lon="31.2188705150"><ele>38.83</ele><time>2026-08-30T22:18:42Z</time></trkpt><trkpt lat="59.1978536546" lon="31.2188586965"><ele>39.05</ele><time>2026-08-30T22:18:47Z</time></trkpt><trkpt lat="59.1979209613" lon="31.2188508175"><ele>39.01</ele><time>2026-08-30T22:18:51Z</time></trkpt><trkpt lat="59.1981284134" lon="31.2188468780"><ele>38.24</ele><time>2026-08-30T22:19:05Z</time></trkpt><trkpt lat="59.1981978156" lon="31.2189140171"><ele>38.02</ele><time>2026-08-30T22:19:17Z</time></trkpt><trkpt lat="59.1981867515" lon="31.2190318666"><ele>37.74</ele><time>2026-08-30T22:19:35Z</time></trkpt><trkpt lat="59.1982248053" lon="31.2189909630"><ele>36.39</ele><time>2026-08-30T22:19:44Z</time></trkpt><trkpt lat="59.1982359532" lon="31.2189718522"><ele>37.74</ele><time>2026-08-30T22:19:46Z</time></trkpt><trkpt lat="59.1982793715" lon="31.2189479638"><ele>39.36</ele><time>2026-08-30T22:19:52Z</time></trkpt><trkpt lat="59.1984346882" lon="31.2189736962"><ele>38.70</ele><time>2026-08-30T22:20:13Z</time></trkpt><trkpt lat="59.1985814553" lon="31.2189477962"><ele>38.30</ele><time>2026-08-30T22:20:28Z</time></trkpt><trkpt lat="59.1988905799" lon="31.2189335469"><ele>38.46</ele><time>2026-08-30T22:20:52Z</time></trkpt><trkpt lat="59.1991923284" lon="31.2188922241"><ele>38.76</ele><time>2026-08-30T22:21:15Z</time></trkpt><trkpt lat="59.1994144488" lon="31.2188779749"><ele>39.09</ele><time>2026-08-30T22:21:36Z</time></trkpt><trkpt lat="59.1996496450" lon="31.2189216446"><ele>39.28</ele><time>2026-08-30T22:21:57Z</time></trkpt><trkpt lat="59.1998280119" lon="31.2189503945"><ele>38.58</ele><time>2026-08-30T22:22:18Z</time></trkpt><trkpt lat="59.1998535767" lon="31.2189285178"><ele>40.78</ele><time>2026-08-30T22:22:40Z</time></trkpt><trkpt lat="59.1998374835" lon="31.2188990973"><ele>41.19</ele><time>2026-08-30T22:23:08Z</time></trkpt><trkpt lat="59.1998617072" lon="31.2188739516"><ele>40.89</ele><time>2026-08-30T22:23:31Z</time></trkpt><trkpt lat="59.1998879425" lon="31.2187156174"><ele>40.27</ele><time>2026-08-30T22:23:48Z</time></trkpt><trkpt lat="59.1999123339" lon="31.2186950818"><ele>41.05</ele><time>2026-08-30T22:24:09Z</time></trkpt><trkpt lat="59.1999306064" lon="31.2186940759"><ele>36.68</ele><time>2026-08-30T22:24:17Z</time></trkpt><trkpt lat="59.1999321990" lon="31.2186960876"><ele>36.67</ele><time>2026-08-30T22:24:18Z</time></trkpt><trkpt lat="59.1999421734" lon="31.2187003624"><ele>41.44</ele><time>2026-08-30T22:24:21Z</time></trkpt><trkpt lat="59.1999482084" lon="31.2187071517"><ele>41.16</ele><time>2026-08-30T22:24:22Z</time></trkpt><trkpt lat="59.2000061274" lon="31.2187380809"><ele>41.54</ele><time>2026-08-30T22:24:40Z</time></trkpt><trkpt lat="59.2000860069" lon="31.2187374104"><ele>41.69</ele><time>2026-08-30T22:25:00Z</time></trkpt><trkpt lat="59.2001105659" lon="31.2187519111"><ele>39.98</ele><time>2026-08-30T22:25:07Z</time></trkpt><trkpt lat="59.2001086380" lon="31.2188265938"><ele>39.26</ele><time>2026-08-30T22:25:33Z</time></trkpt><trkpt lat="59.2001952231" lon="31.2189478800"><ele>34.48</ele><time>2026-08-30T22:25:59Z</time></trkpt><trkpt lat="59.2001968157" lon="31.2189508975"><ele>35.63</ele><time>2026-08-30T22:26:00Z</time></trkpt><trkpt lat="59.2001969833" lon="31.2189564295"><ele>35.67</ele><time>2026-08-30T22:26:01Z</time></trkpt><trkpt lat="59.2001842428" lon="31.2189708464"><ele>35.98</ele><time>2026-08-30T22:26:05Z</time></trkpt><trkpt lat="59.2002077121" lon="31.2190157734"><ele>34.54</ele><time>2026-08-30T22:26:12Z</time></trkpt><trkpt lat="59.2002013419" lon="31.2190594431"><ele>36.00</ele><time>2026-08-30T22:26:26Z</time></trkpt><trkpt lat="59.2002631165" lon="31.2189832516"><ele>35.09</ele><time>2026-08-30T22:26:50Z</time></trkpt><trkpt lat="59.2002792098" lon="31.2189460360"><ele>34.68</ele><time>2026-08-30T22:26:57Z</time></trkpt><trkpt lat="59.2002910282" lon="31.2188970856"><ele>32.89</ele><time>2026-08-30T22:27:16Z</time></trkpt><trkpt lat="59.2003175989" lon="31.2188959960"><ele>36.13</ele><time>2026-08-30T22:27:26Z</time></trkpt><trkpt lat="59.2003714945" lon="31.2190421764"><ele>34.35</ele><time>2026-08-30T22:27:51Z</time></trkpt><trkpt lat="59.2004429922" lon="31.2190191261"><ele>34.07</ele><time>2026-08-30T22:28:09Z</time></trkpt><trkpt lat="59.2004704010" lon="31.2190241553"><ele>30.76</ele><time>2026-08-30T22:28:15Z</time></trkpt><trkpt lat="59.2004764359" lon="31.2190265022"><ele>30.78</ele><time>2026-08-30T22:28:16Z</time></trkpt><trkpt lat="59.2004857399" lon="31.2190493010"><ele>30.80</ele><time>2026-08-30T22:28:19Z</time></trkpt><trkpt lat="59.2005603388" lon="31.2190581020"><ele>34.58</ele><time>2026-08-30T22:28:29Z</time></trkpt><trkpt lat="59.2005644459" lon="31.2190545816"><ele>34.39</ele><time>2026-08-30T22:28:30Z</time></trkpt><trkpt lat="59.2005863227" lon="31.2190502230"><ele>33.48</ele><time>2026-08-30T22:28:36Z</time></trkpt><trkpt lat="59.2006452475" lon="31.2190599460"><ele>32.17</ele><time>2026-08-30T22:28:55Z</time></trkpt><trkpt lat="59.2007357720" lon="31.2189878616"><ele>31.90</ele><time>2026-08-30T22:29:15Z</time></trkpt><trkpt lat="59.2007361911" lon="31.2189905439"><ele>31.75</ele><time>2026-08-30T22:29:16Z</time></trkpt><trkpt lat="59.2008621711" lon="31.2189431861"><ele>32.37</ele><time>2026-08-30T22:29:35Z</time></trkpt><trkpt lat="59.2009673640" lon="31.2189636379"><ele>30.89</ele><time>2026-08-30T22:29:56Z</time></trkpt><trkpt lat="59.2009791825" lon="31.2189586088"><ele>32.56</ele><time>2026-08-30T22:29:59Z</time></trkpt><trkpt lat="59.2009967845" lon="31.2189701758"><ele>32.33</ele><time>2026-08-30T22:30:04Z</time></trkpt><trkpt lat="59.2010193318" lon="31.2189548369"><ele>31.86</ele><time>2026-08-30T22:30:08Z</time></trkpt><trkpt lat="59.2010892369" lon="31.2189555913"><ele>32.22</ele><time>2026-08-30T22:30:37Z</time></trkpt><trkpt lat="59.2011474073" lon="31.2189322896"><ele>31.84</ele><time>2026-08-30T22:31:11Z</time></trkpt><trkpt lat="59.2011334933" lon="31.2189306971"><ele>30.03</ele><time>2026-08-30T22:31:30Z</time></trkpt><trkpt lat="59.2011479102" lon="31.2188347243"><ele>30.70</ele><time>2026-08-30T22:31:56Z</time></trkpt><trkpt lat="59.2011046596" lon="31.2188364007"><ele>27.52</ele><time>2026-08-30T22:32:25Z</time></trkpt><trkpt lat="59.2011079285" lon="31.2188192178"><ele>25.28</ele><time>2026-08-30T22:32:54Z</time></trkpt><trkpt lat="59.2010809388" lon="31.2188354786"><ele>23.89</ele><time>2026-08-30T22:33:25Z</time></trkpt><trkpt lat="59.2011054140" lon="31.2188001908"><ele>23.68</ele><time>2026-08-30T22:33:58Z</time></trkpt><trkpt lat="59.2011110298" lon="31.2187976763"><ele>23.79</ele><time>2026-08-30T22:34:32Z</time></trkpt><trkpt lat="59.2011240218" lon="31.2188064773"><ele>20.07</ele><time>2026-08-30T22:34:47Z</time></trkpt><trkpt lat="59.2011248600" lon="31.2188061420"><ele>20.09</ele><time>2026-08-30T22:34:48Z</time></trkpt><trkpt lat="59.2011194117" lon="31.2187983468"><ele>24.23</ele><time>2026-08-30T22:34:52Z</time></trkpt><trkpt lat="59.2011184059" lon="31.2187909707"><ele>24.16</ele><time>2026-08-30T22:34:53Z</time></trkpt><trkpt lat="59.2010790110" lon="31.2186734565"><ele>24.06</ele><time>2026-08-30T22:35:15Z</time></trkpt><trkpt lat="59.2010597326" lon="31.2185978517"><ele>22.31</ele><time>2026-08-30T22:35:28Z</time></trkpt><trkpt lat="59.2010336649" lon="31.2184672616"><ele>24.24</ele><time>2026-08-30T22:35:49Z</time></trkpt><trkpt lat="59.2010000534" lon="31.2183258589"><ele>25.49</ele><time>2026-08-30T22:36:10Z</time></trkpt><trkpt lat="59.2010097764" lon="31.2181780860"><ele>27.14</ele><time>2026-08-30T22:36:35Z</time></trkpt><trkpt lat="59.2009912524" lon="31.2180773355"><ele>29.55</ele><time>2026-08-30T22:37:03Z</time></trkpt><trkpt lat="59.2009868938" lon="31.2179810274"><ele>31.53</ele><time>2026-08-30T22:37:30Z</time></trkpt><trkpt lat="59.2009942699" lon="31.2180111185"><ele>33.51</ele><time>2026-08-30T22:38:03Z</time></trkpt><trkpt lat="59.2010327429" lon="31.2180050835"><ele>34.97</ele><time>2026-08-30T22:38:40Z</time></trkpt><trkpt lat="59.2010159791" lon="31.2179434765"><ele>33.55</ele><time>2026-08-30T22:39:15Z</time></trkpt><trkpt lat="59.2009956948" lon="31.2179518584"><ele>36.58</ele><time>2026-08-30T22:39:32Z</time></trkpt><trkpt lat="59.2010018136" lon="31.2179777585"><ele>33.28</ele><time>2026-08-30T22:39:37Z</time></trkpt><trkpt lat="59.2009708844" lon="31.2181003019"><ele>32.72</ele><time>2026-08-30T22:39:59Z</time></trkpt><trkpt lat="59.2008946091" lon="31.2181329913"><ele>32.74</ele><time>2026-08-30T22:40:22Z</time></trkpt><trkpt lat="59.2008816171" lon="31.2181584723"><ele>32.37</ele><time>2026-08-30T22:40:31Z</time></trkpt><trkpt lat="59.2008216027" lon="31.2181536108"><ele>33.41</ele><time>2026-08-30T22:40:58Z</time></trkpt><trkpt lat="59.2007888295" lon="31.2182251085"><ele>32.97</ele><time>2026-08-30T22:41:19Z</time></trkpt><trkpt lat="59.2007673718" lon="31.2182479911"><ele>31.50</ele><time>2026-08-30T22:41:27Z</time></trkpt><trkpt lat="59.2007699702" lon="31.2182439677"><ele>36.06</ele><time>2026-08-30T22:41:29Z</time></trkpt><trkpt lat="59.2007714789" lon="31.2182432134"><ele>36.23</ele><time>2026-08-30T22:41:30Z</time></trkpt><trkpt lat="59.2007786874" lon="31.2182996236"><ele>33.79</ele><time>2026-08-30T22:41:41Z</time></trkpt><trkpt lat="59.2007814534" lon="31.2183261942"><ele>36.58</ele><time>2026-08-30T22:41:46Z</time></trkpt><trkpt lat="59.2007879913" lon="31.2184249330"><ele>36.43</ele><time>2026-08-30T22:42:09Z</time></trkpt><trkpt lat="59.2007207684" lon="31.2183857057"><ele>36.79</ele><time>2026-08-30T22:42:40Z</time></trkpt><trkpt lat="59.2007348500" lon="31.2184778228"><ele>37.39</ele><time>2026-08-30T22:43:13Z</time></trkpt><trkpt lat="59.2007419746" lon="31.2184380926"><ele>36.86</ele><time>2026-08-30T22:43:43Z</time></trkpt><trkpt lat="59.2007428128" lon="31.2184388470"><ele>32.66</ele><time>2026-08-30T22:43:44Z</time></trkpt><trkpt lat="59.2007435672" lon="31.2184399366"><ele>34.13</ele><time>2026-08-30T22:43:45Z</time></trkpt><trkpt lat="59.2007364426" lon="31.2185085844"><ele>37.48</ele><time>2026-08-30T22:44:02Z</time></trkpt><trkpt lat="59.2007337604" lon="31.2185116019"><ele>37.23</ele><time>2026-08-30T22:44:03Z</time></trkpt><trkpt lat="59.2007465009" lon="31.2184501626"><ele>37.58</ele><time>2026-08-30T22:44:18Z</time></trkpt><trkpt lat="59.2007503565" lon="31.2184122764"><ele>35.57</ele><time>2026-08-30T22:44:44Z</time></trkpt><trkpt lat="59.2006963771" lon="31.2184302974"><ele>34.70</ele><time>2026-08-30T22:45:09Z</time></trkpt><trkpt lat="59.2006712314" lon="31.2183230929"><ele>33.90</ele><time>2026-08-30T22:45:31Z</time></trkpt><trkpt lat="59.2006298248" lon="31.2182457279"><ele>34.33</ele><time>2026-08-30T22:45:54Z</time></trkpt><trkpt lat="59.2006308306" lon="31.2182416208"><ele>34.51</ele><time>2026-08-30T22:45:55Z</time></trkpt><trkpt lat="59.2006343510" lon="31.2182154693"><ele>30.45</ele><time>2026-08-30T22:46:00Z</time></trkpt><trkpt lat="59.2006325070" lon="31.2182127871"><ele>30.46</ele><time>2026-08-30T22:46:01Z</time></trkpt><trkpt lat="59.2006180901" lon="31.2182031479"><ele>35.53</ele><time>2026-08-30T22:46:10Z</time></trkpt><trkpt lat="59.2006176710" lon="31.2182016391"><ele>35.45</ele><time>2026-08-30T22:46:11Z</time></trkpt><trkpt lat="59.2005828023" lon="31.2182242703"><ele>35.66</ele><time>2026-08-30T22:46:39Z</time></trkpt><trkpt lat="59.2005853169" lon="31.2181730568"><ele>36.30</ele><time>2026-08-30T22:47:05Z</time></trkpt><trkpt lat="59.2005785275" lon="31.2180985417"><ele>36.94</ele><time>2026-08-30T22:47:39Z</time></trkpt><trkpt lat="59.2005778570" lon="31.2180724740"><ele>37.19</ele><time>2026-08-30T22:47:49Z</time></trkpt><trkpt lat="59.2005400546" lon="31.2181452289"><ele>37.00</ele><time>2026-08-30T22:48:18Z</time></trkpt><trkpt lat="59.2005372047" lon="31.2181530241"><ele>35.05</ele><time>2026-08-30T22:48:26Z</time></trkpt><trkpt lat="59.2005706485" lon="31.2181774154"><ele>37.66</ele><time>2026-08-30T22:48:43Z</time></trkpt><trkpt lat="59.2004926130" lon="31.2182019744"><ele>36.16</ele><time>2026-08-30T22:49:07Z</time></trkpt><trkpt lat="59.2004030105" lon="31.2182562891"><ele>36.55</ele><time>2026-08-30T22:49:26Z</time></trkpt><trkpt lat="59.2003454268" lon="31.2182836980"><ele>37.45</ele><time>2026-08-30T22:49:47Z</time></trkpt><trkpt lat="59.2002960574" lon="31.2183352467"><ele>38.68</ele><time>2026-08-30T22:50:06Z</time></trkpt><trkpt lat="59.2002175190" lon="31.2182803452"><ele>40.55</ele><time>2026-08-30T22:50:28Z</time></trkpt><trkpt lat="59.2001513019" lon="31.2182422914"><ele>41.67</ele><time>2026-08-30T22:50:47Z</time></trkpt><trkpt lat="59.2001302633" lon="31.2182166427"><ele>41.10</ele><time>2026-08-30T22:50:56Z</time></trkpt><trkpt lat="59.2001283355" lon="31.2182106916"><ele>42.19</ele><time>2026-08-30T22:50:58Z</time></trkpt><trkpt lat="59.2000719253" lon="31.2182096019"><ele>43.80</ele><time>2026-08-30T22:51:11Z</time></trkpt><trkpt lat="59.2000064626" lon="31.2182266172"><ele>45.07</ele><time>2026-08-30T22:51:35Z</time></trkpt><trkpt lat="59.1999804787" lon="31.2183651701"><ele>46.00</ele><time>2026-08-30T22:51:53Z</time></trkpt><trkpt lat="59.1999761201" lon="31.2185722869"><ele>47.13</ele><time>2026-08-30T22:52:10Z</time></trkpt><trkpt lat="59.1999731027" lon="31.2187184673"><ele>48.44</ele><time>2026-08-30T22:52:25Z</time></trkpt><trkpt lat="59.1999043711" lon="31.2186700199"><ele>50.07</ele><time>2026-08-30T22:52:47Z</time></trkpt><trkpt lat="59.1998482961" lon="31.2186152022"><ele>51.47</ele><time>2026-08-30T22:53:09Z</time></trkpt><trkpt lat="59.1997816600" lon="31.2188051362"><ele>52.46</ele><time>2026-08-30T22:53:28Z</time></trkpt><trkpt lat="59.1997719370" lon="31.2189529929"><ele>50.89</ele><time>2026-08-30T22:53:48Z</time></trkpt><trkpt lat="59.1998111643" lon="31.2190398294"><ele>52.54</ele><time>2026-08-30T22:54:08Z</time></trkpt><trkpt lat="59.1996440291" lon="31.2189106643"><ele>53.33</ele><time>2026-08-30T22:54:27Z</time></trkpt><trkpt lat="59.1995104216" lon="31.2189233210"><ele>54.37</ele><time>2026-08-30T22:54:47Z</time></trkpt><trkpt lat="59.1994695179" lon="31.2189449463"><ele>54.87</ele><time>2026-08-30T22:55:02Z</time></trkpt><trkpt lat="59.1994409356" lon="31.2189832516"><ele>55.20</ele><time>2026-08-30T22:55:32Z</time></trkpt><trkpt lat="59.1993943322" lon="31.2189575192"><ele>53.14</ele><time>2026-08-30T22:56:05Z</time></trkpt><trkpt lat="59.1994137783" lon="31.2190244067"><ele>50.25</ele><time>2026-08-30T22:56:37Z</time></trkpt><trkpt lat="59.1994212382" lon="31.2190013565"><ele>49.21</ele><time>2026-08-30T22:56:47Z</time></trkpt><trkpt lat="59.1994631477" lon="31.2189731095"><ele>44.84</ele><time>2026-08-30T22:57:01Z</time></trkpt><trkpt lat="59.1994603816" lon="31.2189706787"><ele>47.27</ele><time>2026-08-30T22:57:05Z</time></trkpt><trkpt lat="59.1994931549" lon="31.2189774681"><ele>44.16</ele><time>2026-08-30T22:57:31Z</time></trkpt><trkpt lat="59.1995669156" lon="31.2189542502"><ele>41.11</ele><time>2026-08-30T22:57:58Z</time></trkpt><trkpt lat="59.1995553486" lon="31.2189218961"><ele>37.99</ele><time>2026-08-30T22:58:23Z</time></trkpt><trkpt lat="59.1995239165" lon="31.2189235725"><ele>34.85</ele><time>2026-08-30T22:58:49Z</time></trkpt><trkpt lat="59.1994581185" lon="31.2189192139"><ele>31.77</ele><time>2026-08-30T22:59:13Z</time></trkpt><trkpt lat="59.1994541790" lon="31.2189151905"><ele>28.20</ele><time>2026-08-30T22:59:23Z</time></trkpt><trkpt lat="59.1994578671" lon="31.2189082336"><ele>28.66</ele><time>2026-08-30T22:59:24Z</time></trkpt><trkpt lat="59.1994633153" lon="31.2189196330"><ele>24.71</ele><time>2026-08-30T22:59:39Z</time></trkpt><trkpt lat="59.1994607169" lon="31.2189218123"><ele>27.78</ele><time>2026-08-30T22:59:41Z</time></trkpt><trkpt lat="59.1994609684" lon="31.2189224828"><ele>27.42</ele><time>2026-08-30T22:59:42Z</time></trkpt><trkpt lat="59.1994776484" lon="31.2189834192"><ele>24.85</ele><time>2026-08-30T23:00:09Z</time></trkpt><trkpt lat="59.1994807497" lon="31.2189189624"><ele>21.75</ele><time>2026-08-30T23:00:37Z</time></trkpt><trkpt lat="59.1994640697" lon="31.2189665716"><ele>20.31</ele><time>2026-08-30T23:01:02Z</time></trkpt><trkpt lat="59.1994079109" lon="31.2189622968"><ele>19.06</ele><time>2026-08-30T23:01:30Z</time></trkpt><trkpt lat="59.1992955934" lon="31.2190225627"><ele>19.30</ele><time>2026-08-30T23:01:49Z</time></trkpt><trkpt lat="59.1991694458" lon="31.2190064695"><ele>20.17</ele><time>2026-08-30T23:02:09Z</time></trkpt><trkpt lat="59.1990361735" lon="31.2189678289"><ele>22.03</ele><time>2026-08-30T23:02:28Z</time></trkpt><trkpt lat="59.1989474092" lon="31.2189492211"><ele>21.56</ele><time>2026-08-30T23:02:44Z</time></trkpt><trkpt lat="59.1989276279" lon="31.2189506460"><ele>23.63</ele><time>2026-08-30T23:02:46Z</time></trkpt><trkpt lat="59.1988374386" lon="31.2189940643"><ele>26.30</ele><time>2026-08-30T23:03:02Z</time></trkpt><trkpt lat="59.1987102851" lon="31.2189712655"><ele>27.19</ele><time>2026-08-30T23:03:21Z</time></trkpt><trkpt lat="59.1986166593" lon="31.2189279310"><ele>29.29</ele><time>2026-08-30T23:03:39Z</time></trkpt><trkpt lat="59.1985572316" lon="31.2189469580"><ele>31.11</ele><time>2026-08-30T23:03:58Z</time></trkpt><trkpt lat="59.1984859854" lon="31.2189673260"><ele>32.75</ele><time>2026-08-30T23:04:17Z</time></trkpt><trkpt lat="59.1983507015" lon="31.2190215569"><ele>33.55</ele><time>2026-08-30T23:04:33Z</time></trkpt><trkpt lat="59.1982676368" lon="31.2189741153"><ele>34.44</ele><time>2026-08-30T23:04:40Z</time></trkpt><trkpt lat="59.1981120687" lon="31.2188950740"><ele>35.65</ele><time>2026-08-30T23:04:55Z</time></trkpt><trkpt lat="59.1980124079" lon="31.2188685033"><ele>37.55</ele><time>2026-08-30T23:05:11Z</time></trkpt><trkpt lat="59.1980001703" lon="31.2188588642"><ele>39.21</ele><time>2026-08-30T23:05:40Z</time></trkpt><trkpt lat="59.1979882680" lon="31.2188688386"><ele>40.59</ele><time>2026-08-30T23:06:06Z</time></trkpt><trkpt lat="59.1979685705" lon="31.2188049685"><ele>41.77</ele><time>2026-08-30T23:06:30Z</time></trkpt><trkpt lat="59.1979855858" lon="31.2188280188"><ele>42.66</ele><time>2026-08-30T23:06:59Z</time></trkpt><trkpt lat="59.1980038583" lon="31.2188401725"><ele>43.57</ele><time>2026-08-30T23:07:28Z</time></trkpt><trkpt lat="59.1979807243" lon="31.2188715208"><ele>44.69</ele><time>2026-08-30T23:07:46Z</time></trkpt><trkpt lat="59.1979082208" lon="31.2189005222"><ele>45.38</ele><time>2026-08-30T23:08:16Z</time></trkpt><trkpt lat="59.1977011040" lon="31.2189071439"><ele>46.37</ele><time>2026-08-30T23:08:37Z</time></trkpt><trkpt lat="59.1975146066" lon="31.2189002708"><ele>47.36</ele><time>2026-08-30T23:08:59Z</time></trkpt><trkpt lat="59.1973544285" lon="31.2188908830"><ele>48.20</ele><time>2026-08-30T23:09:15Z</time></trkpt><trkpt lat="59.1970565356" lon="31.2189077307"><ele>49.48</ele><time>2026-08-30T23:09:39Z</time></trkpt><trkpt lat="59.1969139595" lon="31.2188795675"><ele>51.18</ele><time>2026-08-30T23:09:57Z</time></trkpt><trkpt lat="59.1968650091" lon="31.2188409269"><ele>52.77</ele><time>2026-08-30T23:10:25Z</time></trkpt><trkpt lat="59.1968119517" lon="31.2188472133"><ele>54.21</ele><time>2026-08-30T23:10:45Z</time></trkpt><trkpt lat="59.1967836209" lon="31.2187928986"><ele>55.33</ele><time>2026-08-30T23:11:10Z</time></trkpt><trkpt lat="59.1967789270" lon="31.2187867798"><ele>54.91</ele><time>2026-08-30T23:11:26Z</time></trkpt><trkpt lat="59.1967802681" lon="31.2187856063"><ele>52.39</ele><time>2026-08-30T23:11:29Z</time></trkpt><trkpt lat="59.1967931762" lon="31.2187877856"><ele>55.24</ele><time>2026-08-30T23:11:33Z</time></trkpt><trkpt lat="59.1966531985" lon="31.2188375741"><ele>55.13</ele><time>2026-08-30T23:11:50Z</time></trkpt><trkpt lat="59.1965608299" lon="31.2188233249"><ele>55.71</ele><time>2026-08-30T23:12:10Z</time></trkpt><trkpt lat="59.1964783520" lon="31.2188456208"><ele>55.99</ele><time>2026-08-30T23:12:18Z</time></trkpt><trkpt lat="59.1963774338" lon="31.2188606244"><ele>57.21</ele><time>2026-08-30T23:12:33Z</time></trkpt><trkpt lat="59.1962835565" lon="31.2188700121"><ele>57.85</ele><time>2026-08-30T23:12:51Z</time></trkpt><trkpt lat="59.1961931158" lon="31.2188343890"><ele>59.17</ele><time>2026-08-30T23:13:12Z</time></trkpt><trkpt lat="59.1961215343" lon="31.2188615464"><ele>53.41</ele><time>2026-08-30T23:13:21Z</time></trkpt><trkpt lat="59.1961143259" lon="31.2188632227"><ele>54.67</ele><time>2026-08-30T23:13:22Z</time></trkpt><trkpt lat="59.1961098835" lon="31.2188664079"><ele>58.10</ele><time>2026-08-30T23:13:23Z</time></trkpt><trkpt lat="59.1960167605" lon="31.2189121731"><ele>60.14</ele><time>2026-08-30T23:13:42Z</time></trkpt><trkpt lat="59.1959062871" lon="31.2188643962"><ele>60.84</ele><time>2026-08-30T23:13:59Z</time></trkpt><trkpt lat="59.1958441772" lon="31.2188500632"><ele>62.02</ele><time>2026-08-30T23:14:14Z</time></trkpt><trkpt lat="59.1957736854" lon="31.2188762985"><ele>62.33</ele><time>2026-08-30T23:14:25Z</time></trkpt><trkpt lat="59.1956871003" lon="31.2188564334"><ele>63.56</ele><time>2026-08-30T23:14:49Z</time></trkpt><trkpt lat="59.1955301072" lon="31.2188378256"><ele>64.09</ele><time>2026-08-30T23:15:10Z</time></trkpt><trkpt lat="59.1953416821" lon="31.2188315392"><ele>64.97</ele><time>2026-08-30T23:15:28Z</time></trkpt><trkpt lat="59.1951426119" lon="31.2188900448"><ele>66.03</ele><time>2026-08-30T23:15:49Z</time></trkpt><trkpt lat="59.1951675061" lon="31.2187435292"><ele>67.73</ele><time>2026-08-30T23:16:19Z</time></trkpt><trkpt lat="59.1950540990" lon="31.2188319582"><ele>67.63</ele><time>2026-08-30T23:16:38Z</time></trkpt><trkpt lat="59.1950416099" lon="31.2188277673"><ele>68.90</ele><time>2026-08-30T23:17:01Z</time></trkpt><trkpt lat="59.1949459724" lon="31.2188813277"><ele>69.36</ele><time>2026-08-30T23:17:20Z</time></trkpt><trkpt lat="59.1949404404" lon="31.2188780587"><ele>69.49</ele><time>2026-08-30T23:17:21Z</time></trkpt><trkpt lat="59.1947922483" lon="31.2188938167"><ele>69.09</ele><time>2026-08-30T23:17:39Z</time></trkpt><trkpt lat="59.1946200840" lon="31.2189037912"><ele>69.95</ele><time>2026-08-30T23:18:00Z</time></trkpt><trkpt lat="59.1946021467" lon="31.2189002708"><ele>69.53</ele><time>2026-08-30T23:18:07Z</time></trkpt><trkpt lat="59.1945843771" lon="31.2188455369"><ele>70.11</ele><time>2026-08-30T23:18:32Z</time></trkpt><trkpt lat="59.1945770849" lon="31.2188187987"><ele>69.92</ele><time>2026-08-30T23:18:38Z</time></trkpt><trkpt lat="59.1945084371" lon="31.2188098300"><ele>69.06</ele><time>2026-08-30T23:18:57Z</time></trkpt><trkpt lat="59.1944507696" lon="31.2189456169"><ele>68.49</ele><time>2026-08-30T23:19:27Z</time></trkpt><trkpt lat="59.1944746580" lon="31.2189126760"><ele>68.02</ele><time>2026-08-30T23:19:45Z</time></trkpt><trkpt lat="59.1943481751" lon="31.2189182080"><ele>68.38</ele><time>2026-08-30T23:20:07Z</time></trkpt><trkpt lat="59.1942631826" lon="31.2189332116"><ele>67.58</ele><time>2026-08-30T23:20:15Z</time></trkpt><trkpt lat="59.1940670460" lon="31.2189977523"><ele>67.93</ele><time>2026-08-30T23:20:31Z</time></trkpt><trkpt lat="59.1939636134" lon="31.2189905439"><ele>67.81</ele><time>2026-08-30T23:20:40Z</time></trkpt><trkpt lat="59.1939352825" lon="31.2189827487"><ele>67.26</ele><time>2026-08-30T23:20:42Z</time></trkpt><trkpt lat="59.1937208734" lon="31.2189465389"><ele>66.75</ele><time>2026-08-30T23:20:58Z</time></trkpt><trkpt lat="59.1935548279" lon="31.2189291045"><ele>66.78</ele><time>2026-08-30T23:21:11Z</time></trkpt><trkpt lat="59.1934939753" lon="31.2188996840"><ele>66.89</ele><time>2026-08-30T23:21:23Z</time></trkpt><trkpt lat="59.1933466215" lon="31.2189570162"><ele>66.76</ele><time>2026-08-30T23:21:36Z</time></trkpt><trkpt lat="59.1932363156" lon="31.2189982552"><ele>66.86</ele><time>2026-08-30T23:21:45Z</time></trkpt><trkpt lat="59.1929966770" lon="31.2189985067"><ele>67.47</ele><time>2026-08-30T23:22:04Z</time></trkpt><trkpt lat="59.1928066593" lon="31.2190016918"><ele>67.38</ele><time>2026-08-30T23:22:20Z</time></trkpt><trkpt lat="59.1927222535" lon="31.2190266699"><ele>63.75</ele><time>2026-08-30T23:22:27Z</time></trkpt><trkpt lat="59.1927168891" lon="31.2190253288"><ele>63.73</ele><time>2026-08-30T23:22:28Z</time></trkpt><trkpt lat="59.1926494986" lon="31.2189856824"><ele>68.78</ele><time>2026-08-30T23:22:33Z</time></trkpt><trkpt lat="59.1926306393" lon="31.2189640570"><ele>68.92</ele><time>2026-08-30T23:22:34Z</time></trkpt><trkpt lat="59.1925821919" lon="31.2189229857"><ele>68.10</ele><time>2026-08-30T23:22:43Z</time></trkpt><trkpt lat="59.1923973709" lon="31.2189287692"><ele>67.83</ele><time>2026-08-30T23:23:00Z</time></trkpt><trkpt lat="59.1922995541" lon="31.2188920565"><ele>68.12</ele><time>2026-08-30T23:23:09Z</time></trkpt><trkpt lat="59.1921307426" lon="31.2186579499"><ele>68.92</ele><time>2026-08-30T23:23:28Z</time></trkpt><trkpt lat="59.1919279005" lon="31.2182922475"><ele>69.07</ele><time>2026-08-30T23:23:48Z</time></trkpt><trkpt lat="59.1916945484" lon="31.2181146350"><ele>70.22</ele><time>2026-08-30T23:24:08Z</time></trkpt><trkpt lat="59.1915379744" lon="31.2180431373"><ele>70.44</ele><time>2026-08-30T23:24:22Z</time></trkpt><trkpt lat="59.1914157663" lon="31.2180754915"><ele>70.95</ele><time>2026-08-30T23:24:32Z</time></trkpt><trkpt lat="59.1912601143" lon="31.2180421315"><ele>71.47</ele><time>2026-08-30T23:24:44Z</time></trkpt><trkpt lat="59.1910649836" lon="31.2179790158"><ele>72.17</ele><time>2026-08-30T23:25:00Z</time></trkpt><trkpt lat="59.1910500638" lon="31.2179632578"><ele>72.40</ele><time>2026-08-30T23:25:04Z</time></trkpt><trkpt lat="59.1908397619" lon="31.2177866511"><ele>72.88</ele><time>2026-08-30T23:25:23Z</time></trkpt><trkpt lat="59.1906398535" lon="31.2176273111"><ele>73.83</ele><time>2026-08-30T23:25:44Z</time></trkpt><trkpt lat="59.1904270370" lon="31.2176019978"><ele>75.20</ele><time>2026-08-30T23:26:05Z</time></trkpt><trkpt lat="59.1902790964" lon="31.2175926100"><ele>75.69</ele><time>2026-08-30T23:26:27Z</time></trkpt><trkpt lat="59.1902604885" lon="31.2175740860"><ele>75.84</ele><time>2026-08-30T23:26:38Z</time></trkpt><trkpt lat="59.1901780106" lon="31.2175921910"><ele>76.42</ele><time>2026-08-30T23:27:02Z</time></trkpt><trkpt lat="59.1900066007" lon="31.2175516225"><ele>75.98</ele><time>2026-08-30T23:27:23Z</time></trkpt><trkpt lat="59.1898225341" lon="31.2175275665"><ele>76.16</ele><time>2026-08-30T23:27:43Z</time></trkpt><trkpt lat="59.1897796188" lon="31.2175264768"><ele>76.30</ele><time>2026-08-30T23:27:47Z</time></trkpt><trkpt lat="59.1895809676" lon="31.2174652051"><ele>76.56</ele><time>2026-08-30T23:28:06Z</time></trkpt><trkpt lat="59.1893774550" lon="31.2172720861"><ele>77.22</ele><time>2026-08-30T23:28:28Z</time></trkpt><trkpt lat="59.1892482061" lon="31.2169984169"><ele>77.69</ele><time>2026-08-30T23:28:48Z</time></trkpt><trkpt lat="59.1891880240" lon="31.2168940622"><ele>77.56</ele><time>2026-08-30T23:29:06Z</time></trkpt><trkpt lat="59.1890306119" lon="31.2166925613"><ele>78.64</ele><time>2026-08-30T23:29:24Z</time></trkpt><trkpt lat="59.1890024487" lon="31.2166421860"><ele>78.39</ele><time>2026-08-30T23:29:27Z</time></trkpt><trkpt lat="59.1887369938" lon="31.2164696027"><ele>78.83</ele><time>2026-08-30T23:29:47Z</time></trkpt><trkpt lat="59.1885262728" lon="31.2163468078"><ele>79.18</ele><time>2026-08-30T23:30:04Z</time></trkpt><trkpt lat="59.1883179825" lon="31.2161976937"><ele>80.10</ele><time>2026-08-30T23:30:25Z</time></trkpt><trkpt lat="59.1882064193" lon="31.2161794212"><ele>80.67</ele><time>2026-08-30T23:30:43Z</time></trkpt><trkpt lat="59.1881894879" lon="31.2161215860"><ele>80.76</ele><time>2026-08-30T23:30:51Z</time></trkpt><trkpt lat="59.1881112847" lon="31.2160714623"><ele>80.84</ele><time>2026-08-30T23:30:59Z</time></trkpt><trkpt lat="59.1880889051" lon="31.2160120346"><ele>81.07</ele><time>2026-08-30T23:31:06Z</time></trkpt><trkpt lat="59.1879984643" lon="31.2159759086"><ele>80.34</ele><time>2026-08-30T23:31:29Z</time></trkpt><trkpt lat="59.1879423894" lon="31.2159752380"><ele>80.80</ele><time>2026-08-30T23:31:40Z</time></trkpt><trkpt lat="59.1877378710" lon="31.2159356754"><ele>81.06</ele><time>2026-08-30T23:32:00Z</time></trkpt><trkpt lat="59.1876414791" lon="31.2159477454"><ele>81.04</ele><time>2026-08-30T23:32:20Z</time></trkpt><trkpt lat="59.1875178460" lon="31.2159868050"><ele>81.21</ele><time>2026-08-30T23:32:39Z</time></trkpt><trkpt lat="59.1873660497" lon="31.2160033174"><ele>80.78</ele><time>2026-08-30T23:32:58Z</time></trkpt><trkpt lat="59.1872975696" lon="31.2159681972"><ele>80.56</ele><time>2026-08-30T23:33:15Z</time></trkpt><trkpt lat="59.1871191189" lon="31.2159103621"><ele>81.22</ele><time>2026-08-30T23:33:36Z</time></trkpt><trkpt lat="59.1870711744" lon="31.2160144653"><ele>80.90</ele><time>2026-08-30T23:33:56Z</time></trkpt><trkpt lat="59.1870155185" lon="31.2160265353"><ele>81.22</ele><time>2026-08-30T23:34:07Z</time></trkpt><trkpt lat="59.1868980881" lon="31.2161245197"><ele>81.08</ele><time>2026-08-30T23:34:22Z</time></trkpt><trkpt lat="59.1868310329" lon="31.2161980290"><ele>81.08</ele><time>2026-08-30T23:34:27Z</time></trkpt><trkpt lat="59.1867695935" lon="31.2163262721"><ele>81.21</ele><time>2026-08-30T23:34:42Z</time></trkpt><trkpt lat="59.1868198011" lon="31.2164369971"><ele>81.15</ele><time>2026-08-30T23:35:00Z</time></trkpt><trkpt lat="59.1868790612" lon="31.2166330498"><ele>80.92</ele><time>2026-08-30T23:35:18Z</time></trkpt><trkpt lat="59.1868984234" lon="31.2167482171"><ele>79.14</ele><time>2026-08-30T23:35:33Z</time></trkpt><trkpt lat="59.1869358066" lon="31.2169019412"><ele>80.43</ele><time>2026-08-30T23:35:52Z</time></trkpt><trkpt lat="59.1869821586" lon="31.2169933878"><ele>79.85</ele><time>2026-08-30T23:36:11Z</time></trkpt><trkpt lat="59.1870078910" lon="31.2171052024"><ele>79.63</ele><time>2026-08-30T23:36:27Z</time></trkpt><trkpt lat="59.1870107409" lon="31.2172627822"><ele>79.27</ele><time>2026-08-30T23:36:55Z</time></trkpt><trkpt lat="59.1870495491" lon="31.2172951363"><ele>79.00</ele><time>2026-08-30T23:37:11Z</time></trkpt><trkpt lat="59.1870830767" lon="31.2172441743"><ele>78.50</ele><time>2026-08-30T23:37:26Z</time></trkpt><trkpt lat="59.1871625371" lon="31.2173165102"><ele>77.27</ele><time>2026-08-30T23:37:52Z</time></trkpt><trkpt lat="59.1872647125" lon="31.2175792828"><ele>76.80</ele><time>2026-08-30T23:38:13Z</time></trkpt><trkpt lat="59.1872998327" lon="31.2178051751"><ele>76.36</ele><time>2026-08-30T23:38:26Z</time></trkpt><trkpt lat="59.1872629523" lon="31.2181403674"><ele>76.51</ele><time>2026-08-30T23:38:43Z</time></trkpt><trkpt lat="59.1872786265" lon="31.2185535952"><ele>76.58</ele><time>2026-08-30T23:39:03Z</time></trkpt><trkpt lat="59.1872337833" lon="31.2188674137"><ele>77.28</ele><time>2026-08-30T23:39:22Z</time></trkpt><trkpt lat="59.1872289218" lon="31.2192010134"><ele>77.15</ele><time>2026-08-30T23:39:42Z</time></trkpt><trkpt lat="59.1872574203" lon="31.2196724117"><ele>77.02</ele><time>2026-08-30T23:40:03Z</time></trkpt><trkpt lat="59.1872233059" lon="31.2201168202"><ele>77.38</ele><time>2026-08-30T23:40:24Z</time></trkpt><trkpt lat="59.1871992499" lon="31.2204930000"><ele>77.13</ele><time>2026-08-30T23:40:44Z</time></trkpt><trkpt lat="59.1872066259" lon="31.2205005437"><ele>75.46</ele><time>2026-08-30T23:40:55Z</time></trkpt><trkpt lat="59.1871449351" lon="31.2206403539"><ele>76.44</ele><time>2026-08-30T23:41:19Z</time></trkpt><trkpt lat="59.1871181969" lon="31.2210244965"><ele>76.59</ele><time>2026-08-30T23:41:37Z</time></trkpt><trkpt lat="59.1871225554" lon="31.2213526480"><ele>76.37</ele><time>2026-08-30T23:41:54Z</time></trkpt><trkpt lat="59.1870876029" lon="31.2217501178"><ele>76.15</ele><time>2026-08-30T23:42:11Z</time></trkpt><trkpt lat="59.1870794725" lon="31.2219670415"><ele>76.50</ele><time>2026-08-30T23:42:19Z</time></trkpt><trkpt lat="59.1870529857" lon="31.2223224342"><ele>76.23</ele><time>2026-08-30T23:42:36Z</time></trkpt><trkpt lat="59.1870350484" lon="31.2228032202"><ele>76.41</ele><time>2026-08-30T23:42:59Z</time></trkpt><trkpt lat="59.1870113276" lon="31.2229564413"><ele>76.39</ele><time>2026-08-30T23:43:21Z</time></trkpt><trkpt lat="59.1870264988" lon="31.2232329603"><ele>76.38</ele><time>2026-08-30T23:43:37Z</time></trkpt><trkpt lat="59.1869774647" lon="31.2236226350"><ele>75.76</ele><time>2026-08-30T23:43:53Z</time></trkpt><trkpt lat="59.1869133431" lon="31.2241050974"><ele>76.09</ele><time>2026-08-30T23:44:12Z</time></trkpt><trkpt lat="59.1869151872" lon="31.2242887449"><ele>75.96</ele><time>2026-08-30T23:44:22Z</time></trkpt><trkpt lat="59.1868705116" lon="31.2245651800"><ele>76.58</ele><time>2026-08-30T23:44:42Z</time></trkpt><trkpt lat="59.1867051367" lon="31.2249032222"><ele>75.80</ele><time>2026-08-30T23:45:01Z</time></trkpt><trkpt lat="59.1866142768" lon="31.2253004406"><ele>75.48</ele><time>2026-08-30T23:45:22Z</time></trkpt><trkpt lat="59.1864841897" lon="31.2256866787"><ele>75.15</ele><time>2026-08-30T23:45:44Z</time></trkpt><trkpt lat="59.1863932461" lon="31.2258772831"><ele>75.17</ele><time>2026-08-30T23:45:55Z</time></trkpt><trkpt lat="59.1862960160" lon="31.2260942068"><ele>74.94</ele><time>2026-08-30T23:46:11Z</time></trkpt><trkpt lat="59.1861144640" lon="31.2262730766"><ele>74.86</ele><time>2026-08-30T23:46:30Z</time></trkpt><trkpt lat="59.1859371029" lon="31.2264011521"><ele>75.27</ele><time>2026-08-30T23:46:50Z</time></trkpt><trkpt lat="59.1857531201" lon="31.2265058421"><ele>74.59</ele><time>2026-08-30T23:47:11Z</time></trkpt><trkpt lat="59.1854442470" lon="31.2266056705"><ele>74.04</ele><time>2026-08-30T23:47:33Z</time></trkpt><trkpt lat="59.1852705739" lon="31.2267272081"><ele>73.79</ele><time>2026-08-30T23:47:52Z</time></trkpt><trkpt lat="59.1852471884" lon="31.2267359253"><ele>74.58</ele><time>2026-08-30T23:47:55Z</time></trkpt><trkpt lat="59.1852386389" lon="31.2267436367"><ele>74.26</ele><time>2026-08-30T23:47:56Z</time></trkpt><trkpt lat="59.1851457674" lon="31.2268334068"><ele>74.23</ele><time>2026-08-30T23:48:13Z</time></trkpt><trkpt lat="59.1851207055" lon="31.2269562017"><ele>73.88</ele><time>2026-08-30T23:48:27Z</time></trkpt><trkpt lat="59.1851039417" lon="31.2270126119"><ele>73.65</ele><time>2026-08-30T23:48:29Z</time></trkpt><trkpt lat="59.1849583481" lon="31.2272982672"><ele>73.74</ele><time>2026-08-30T23:48:50Z</time></trkpt><trkpt lat="59.1848037019" lon="31.2274629716"><ele>72.77</ele><time>2026-08-30T23:49:10Z</time></trkpt><trkpt lat="59.1847223975" lon="31.2276849244"><ele>73.00</ele><time>2026-08-30T23:49:32Z</time></trkpt><trkpt lat="59.1847107466" lon="31.2278335355"><ele>72.44</ele><time>2026-08-30T23:49:44Z</time></trkpt><trkpt lat="59.1845624708" lon="31.2281491142"><ele>71.82</ele><time>2026-08-30T23:50:05Z</time></trkpt><trkpt lat="59.1843989398" lon="31.2283924408"><ele>71.60</ele><time>2026-08-30T23:50:23Z</time></trkpt><trkpt lat="59.1843338124" lon="31.2284480128"><ele>71.54</ele><time>2026-08-30T23:50:35Z</time></trkpt><trkpt lat="59.1843139473" lon="31.2284640223"><ele>71.56</ele><time>2026-08-30T23:50:38Z</time></trkpt><trkpt lat="59.1842251830" lon="31.2285646051"><ele>71.84</ele><time>2026-08-30T23:50:50Z</time></trkpt><trkpt lat="59.1842619795" lon="31.2286567222"><ele>71.31</ele><time>2026-08-30T23:51:17Z</time></trkpt><trkpt lat="59.1842618957" lon="31.2286491785"><ele>66.14</ele><time>2026-08-30T23:51:20Z</time></trkpt><trkpt lat="59.1842661705" lon="31.2286433950"><ele>69.67</ele><time>2026-08-30T23:51:27Z</time></trkpt><trkpt lat="59.1842513345" lon="31.2286486756"><ele>70.60</ele><time>2026-08-30T23:51:29Z</time></trkpt><trkpt lat="59.1842056531" lon="31.2286637630"><ele>69.73</ele><time>2026-08-30T23:51:49Z</time></trkpt><trkpt lat="59.1841916554" lon="31.2286473345"><ele>68.85</ele><time>2026-08-30T23:52:14Z</time></trkpt><trkpt lat="59.1842144541" lon="31.2285345979"><ele>66.17</ele><time>2026-08-30T23:52:40Z</time></trkpt><trkpt lat="59.1842280328" lon="31.2285335083"><ele>64.94</ele><time>2026-08-30T23:52:50Z</time></trkpt><trkpt lat="59.1842284519" lon="31.2286462449"><ele>61.89</ele><time>2026-08-30T23:53:52Z</time></trkpt><trkpt lat="59.1842144541" lon="31.2286324985"><ele>58.89</ele><time>2026-08-30T23:54:15Z</time></trkpt><trkpt lat="59.1842158791" lon="31.2286267988"><ele>56.56</ele><time>2026-08-30T23:54:35Z</time></trkpt><trkpt lat="59.1842540167" lon="31.2285989709"><ele>54.70</ele><time>2026-08-30T23:54:52Z</time></trkpt><trkpt lat="59.1842209082" lon="31.2286117114"><ele>55.43</ele><time>2026-08-30T23:55:09Z</time></trkpt><trkpt lat="59.1842540167" lon="31.2285750825"><ele>49.64</ele><time>2026-08-30T23:55:27Z</time></trkpt><trkpt lat="59.1842719540" lon="31.2285546307"><ele>51.77</ele><time>2026-08-30T23:55:31Z</time></trkpt></trkseg></trk></gpx>